<?xml version="1.0" encoding="UTF-8" standalone="no" ?>
<gpx xmlns="http://www.topografix.com/GPX/1/1" xmlns:xsi="http://www.w3.org/2001/XMLSchema-instance" xsi:schemaLocation="http://www.topografix.com/GPX/1/1 http://www.topografix.com/GPX/1/1/gpx.xsd" version="1.1" creator="VisuGPX - https://www.visugpx.com">
  <metadata>
    <name>Balade au Thoronet</name>
    <desc><![CDATA[Superbe petite balade - terrain varié - forêt, vignes et surtout le long du canal...]]></desc>
  </metadata>
  <trk>
    <name><![CDATA[2018-09-16 10:57:34 Day]]></name>
    <trkseg>
      <trkpt lat="43.47482" lon="6.26818">
        <ele>107.32</ele>
        <time>2018-09-16T08:57:34Z</time>
      </trkpt>
      <trkpt lat="43.47482" lon="6.26818">
        <ele>107.32</ele>
        <time>2018-09-16T08:57:35Z</time>
      </trkpt>
      <trkpt lat="43.47482" lon="6.26819">
        <ele>107.32</ele>
        <time>2018-09-16T08:57:36Z</time>
      </trkpt>
      <trkpt lat="43.47483" lon="6.26825">
        <ele>104.44</ele>
        <time>2018-09-16T08:58:07Z</time>
      </trkpt>
      <trkpt lat="43.47483" lon="6.26825">
        <ele>107.81</ele>
        <time>2018-09-16T08:58:08Z</time>
      </trkpt>
      <trkpt lat="43.47486" lon="6.26829">
        <ele>106.84</ele>
        <time>2018-09-16T08:58:23Z</time>
      </trkpt>
      <trkpt lat="43.47488" lon="6.26834">
        <ele>107.81</ele>
        <time>2018-09-16T08:58:28Z</time>
      </trkpt>
      <trkpt lat="43.47493" lon="6.26871">
        <ele>107.81</ele>
        <time>2018-09-16T08:58:51Z</time>
      </trkpt>
      <trkpt lat="43.47498" lon="6.26911">
        <ele>107.32</ele>
        <time>2018-09-16T08:59:16Z</time>
      </trkpt>
      <trkpt lat="43.47499" lon="6.26917">
        <ele>107.32</ele>
        <time>2018-09-16T08:59:20Z</time>
      </trkpt>
      <trkpt lat="43.47508" lon="6.26951">
        <ele>107.81</ele>
        <time>2018-09-16T08:59:43Z</time>
      </trkpt>
      <trkpt lat="43.47509" lon="6.26957">
        <ele>108.29</ele>
        <time>2018-09-16T08:59:59Z</time>
      </trkpt>
      <trkpt lat="43.47509" lon="6.26969">
        <ele>107.81</ele>
        <time>2018-09-16T09:00:15Z</time>
      </trkpt>
      <trkpt lat="43.47509" lon="6.26976">
        <ele>107.32</ele>
        <time>2018-09-16T09:00:19Z</time>
      </trkpt>
      <trkpt lat="43.4751" lon="6.26985">
        <ele>107.81</ele>
        <time>2018-09-16T09:00:24Z</time>
      </trkpt>
      <trkpt lat="43.47513" lon="6.27011">
        <ele>107.32</ele>
        <time>2018-09-16T09:00:40Z</time>
      </trkpt>
      <trkpt lat="43.47515" lon="6.27017">
        <ele>107.32</ele>
        <time>2018-09-16T09:00:44Z</time>
      </trkpt>
      <trkpt lat="43.47516" lon="6.27036">
        <ele>107.81</ele>
        <time>2018-09-16T09:01:01Z</time>
      </trkpt>
      <trkpt lat="43.47518" lon="6.27062">
        <ele>107.81</ele>
        <time>2018-09-16T09:01:18Z</time>
      </trkpt>
      <trkpt lat="43.47518" lon="6.27081">
        <ele>107.32</ele>
        <time>2018-09-16T09:01:30Z</time>
      </trkpt>
      <trkpt lat="43.47521" lon="6.27097">
        <ele>107.81</ele>
        <time>2018-09-16T09:01:45Z</time>
      </trkpt>
      <trkpt lat="43.47524" lon="6.2711">
        <ele>106.84</ele>
        <time>2018-09-16T09:01:54Z</time>
      </trkpt>
      <trkpt lat="43.47542" lon="6.27114">
        <ele>106.84</ele>
        <time>2018-09-16T09:02:09Z</time>
      </trkpt>
      <trkpt lat="43.47557" lon="6.27132">
        <ele>107.32</ele>
        <time>2018-09-16T09:02:24Z</time>
      </trkpt>
      <trkpt lat="43.47557" lon="6.27141">
        <ele>107.81</ele>
        <time>2018-09-16T09:02:37Z</time>
      </trkpt>
      <trkpt lat="43.47566" lon="6.27159">
        <ele>105.88</ele>
        <time>2018-09-16T09:02:51Z</time>
      </trkpt>
      <trkpt lat="43.47576" lon="6.2718">
        <ele>105.4</ele>
        <time>2018-09-16T09:03:06Z</time>
      </trkpt>
      <trkpt lat="43.47588" lon="6.27202">
        <ele>104.92</ele>
        <time>2018-09-16T09:03:24Z</time>
      </trkpt>
      <trkpt lat="43.47589" lon="6.27204">
        <ele>104.44</ele>
        <time>2018-09-16T09:03:29Z</time>
      </trkpt>
      <trkpt lat="43.47602" lon="6.27232">
        <ele>104.92</ele>
        <time>2018-09-16T09:03:50Z</time>
      </trkpt>
      <trkpt lat="43.47613" lon="6.27258">
        <ele>105.4</ele>
        <time>2018-09-16T09:04:10Z</time>
      </trkpt>
      <trkpt lat="43.47622" lon="6.27286">
        <ele>105.4</ele>
        <time>2018-09-16T09:04:29Z</time>
      </trkpt>
      <trkpt lat="43.47631" lon="6.27316">
        <ele>105.4</ele>
        <time>2018-09-16T09:04:50Z</time>
      </trkpt>
      <trkpt lat="43.47639" lon="6.27343">
        <ele>105.88</ele>
        <time>2018-09-16T09:05:09Z</time>
      </trkpt>
      <trkpt lat="43.47648" lon="6.27373">
        <ele>104.92</ele>
        <time>2018-09-16T09:05:30Z</time>
      </trkpt>
      <trkpt lat="43.47657" lon="6.27398">
        <ele>104.44</ele>
        <time>2018-09-16T09:05:48Z</time>
      </trkpt>
      <trkpt lat="43.47664" lon="6.27422">
        <ele>104.44</ele>
        <time>2018-09-16T09:06:06Z</time>
      </trkpt>
      <trkpt lat="43.47668" lon="6.27436">
        <ele>104.44</ele>
        <time>2018-09-16T09:06:23Z</time>
      </trkpt>
      <trkpt lat="43.47673" lon="6.27446">
        <ele>103.96</ele>
        <time>2018-09-16T09:06:42Z</time>
      </trkpt>
      <trkpt lat="43.47672" lon="6.27443">
        <ele>103.96</ele>
        <time>2018-09-16T09:06:58Z</time>
      </trkpt>
      <trkpt lat="43.47676" lon="6.27443">
        <ele>103.48</ele>
        <time>2018-09-16T09:07:13Z</time>
      </trkpt>
      <trkpt lat="43.47677" lon="6.27442">
        <ele>103.48</ele>
        <time>2018-09-16T09:07:34Z</time>
      </trkpt>
      <trkpt lat="43.47677" lon="6.27443">
        <ele>103.96</ele>
        <time>2018-09-16T09:08:03Z</time>
      </trkpt>
      <trkpt lat="43.47677" lon="6.27444">
        <ele>104.44</ele>
        <time>2018-09-16T09:08:28Z</time>
      </trkpt>
      <trkpt lat="43.47676" lon="6.27446">
        <ele>103.96</ele>
        <time>2018-09-16T09:08:51Z</time>
      </trkpt>
      <trkpt lat="43.47677" lon="6.27441">
        <ele>103.96</ele>
        <time>2018-09-16T09:09:10Z</time>
      </trkpt>
      <trkpt lat="43.47677" lon="6.27443">
        <ele>104.44</ele>
        <time>2018-09-16T09:09:30Z</time>
      </trkpt>
      <trkpt lat="43.47673" lon="6.27456">
        <ele>103.96</ele>
        <time>2018-09-16T09:09:48Z</time>
      </trkpt>
      <trkpt lat="43.47679" lon="6.27473">
        <ele>103.48</ele>
        <time>2018-09-16T09:10:01Z</time>
      </trkpt>
      <trkpt lat="43.47684" lon="6.27495">
        <ele>104.44</ele>
        <time>2018-09-16T09:10:17Z</time>
      </trkpt>
      <trkpt lat="43.47689" lon="6.27512">
        <ele>103.96</ele>
        <time>2018-09-16T09:10:29Z</time>
      </trkpt>
      <trkpt lat="43.47691" lon="6.27519">
        <ele>103.96</ele>
        <time>2018-09-16T09:10:34Z</time>
      </trkpt>
      <trkpt lat="43.47699" lon="6.27544">
        <ele>104.44</ele>
        <time>2018-09-16T09:10:51Z</time>
      </trkpt>
      <trkpt lat="43.47705" lon="6.27567">
        <ele>103.96</ele>
        <time>2018-09-16T09:11:07Z</time>
      </trkpt>
      <trkpt lat="43.47711" lon="6.27586">
        <ele>104.44</ele>
        <time>2018-09-16T09:11:20Z</time>
      </trkpt>
      <trkpt lat="43.47721" lon="6.27619">
        <ele>103.96</ele>
        <time>2018-09-16T09:11:42Z</time>
      </trkpt>
      <trkpt lat="43.47729" lon="6.27635">
        <ele>103.96</ele>
        <time>2018-09-16T09:12:00Z</time>
      </trkpt>
      <trkpt lat="43.47732" lon="6.2765">
        <ele>103.96</ele>
        <time>2018-09-16T09:12:15Z</time>
      </trkpt>
      <trkpt lat="43.47735" lon="6.27663">
        <ele>104.44</ele>
        <time>2018-09-16T09:12:28Z</time>
      </trkpt>
      <trkpt lat="43.47742" lon="6.27683">
        <ele>104.44</ele>
        <time>2018-09-16T09:12:43Z</time>
      </trkpt>
      <trkpt lat="43.4775" lon="6.27702">
        <ele>106.36</ele>
        <time>2018-09-16T09:12:57Z</time>
      </trkpt>
      <trkpt lat="43.47758" lon="6.27727">
        <ele>105.88</ele>
        <time>2018-09-16T09:13:14Z</time>
      </trkpt>
      <trkpt lat="43.47766" lon="6.27751">
        <ele>105.88</ele>
        <time>2018-09-16T09:13:30Z</time>
      </trkpt>
      <trkpt lat="43.47766" lon="6.27765">
        <ele>105.4</ele>
        <time>2018-09-16T09:13:44Z</time>
      </trkpt>
      <trkpt lat="43.47769" lon="6.27783">
        <ele>104.92</ele>
        <time>2018-09-16T09:14:00Z</time>
      </trkpt>
      <trkpt lat="43.47776" lon="6.27791">
        <ele>103.96</ele>
        <time>2018-09-16T09:14:12Z</time>
      </trkpt>
      <trkpt lat="43.47799" lon="6.27805">
        <ele>101.08</ele>
        <time>2018-09-16T09:14:33Z</time>
      </trkpt>
      <trkpt lat="43.47812" lon="6.27813">
        <ele>99.63</ele>
        <time>2018-09-16T09:14:50Z</time>
      </trkpt>
      <trkpt lat="43.47832" lon="6.27808">
        <ele>98.19</ele>
        <time>2018-09-16T09:15:10Z</time>
      </trkpt>
      <trkpt lat="43.47838" lon="6.27808">
        <ele>98.67</ele>
        <time>2018-09-16T09:15:30Z</time>
      </trkpt>
      <trkpt lat="43.47847" lon="6.27803">
        <ele>97.23</ele>
        <time>2018-09-16T09:15:47Z</time>
      </trkpt>
      <trkpt lat="43.47853" lon="6.27802">
        <ele>97.71</ele>
        <time>2018-09-16T09:16:03Z</time>
      </trkpt>
      <trkpt lat="43.47852" lon="6.278">
        <ele>98.19</ele>
        <time>2018-09-16T09:16:19Z</time>
      </trkpt>
      <trkpt lat="43.47844" lon="6.27802">
        <ele>98.19</ele>
        <time>2018-09-16T09:16:41Z</time>
      </trkpt>
      <trkpt lat="43.47855" lon="6.27803">
        <ele>98.19</ele>
        <time>2018-09-16T09:16:58Z</time>
      </trkpt>
      <trkpt lat="43.47855" lon="6.27804">
        <ele>98.19</ele>
        <time>2018-09-16T09:17:15Z</time>
      </trkpt>
      <trkpt lat="43.47858" lon="6.27807">
        <ele>97.71</ele>
        <time>2018-09-16T09:17:36Z</time>
      </trkpt>
      <trkpt lat="43.47859" lon="6.27808">
        <ele>97.71</ele>
        <time>2018-09-16T09:18:10Z</time>
      </trkpt>
      <trkpt lat="43.47851" lon="6.27797">
        <ele>97.71</ele>
        <time>2018-09-16T09:18:37Z</time>
      </trkpt>
      <trkpt lat="43.47845" lon="6.27797">
        <ele>98.19</ele>
        <time>2018-09-16T09:18:55Z</time>
      </trkpt>
      <trkpt lat="43.47845" lon="6.27795">
        <ele>98.67</ele>
        <time>2018-09-16T09:19:24Z</time>
      </trkpt>
      <trkpt lat="43.4784" lon="6.27794">
        <ele>99.15</ele>
        <time>2018-09-16T09:19:54Z</time>
      </trkpt>
      <trkpt lat="43.47839" lon="6.27793">
        <ele>98.67</ele>
        <time>2018-09-16T09:20:26Z</time>
      </trkpt>
      <trkpt lat="43.47839" lon="6.27797">
        <ele>98.67</ele>
        <time>2018-09-16T09:20:48Z</time>
      </trkpt>
      <trkpt lat="43.47842" lon="6.27795">
        <ele>99.63</ele>
        <time>2018-09-16T09:21:23Z</time>
      </trkpt>
      <trkpt lat="43.47839" lon="6.27794">
        <ele>98.67</ele>
        <time>2018-09-16T09:21:48Z</time>
      </trkpt>
      <trkpt lat="43.4784" lon="6.278">
        <ele>99.63</ele>
        <time>2018-09-16T09:22:20Z</time>
      </trkpt>
      <trkpt lat="43.47837" lon="6.27796">
        <ele>99.63</ele>
        <time>2018-09-16T09:22:44Z</time>
      </trkpt>
      <trkpt lat="43.47838" lon="6.27798">
        <ele>99.15</ele>
        <time>2018-09-16T09:23:16Z</time>
      </trkpt>
      <trkpt lat="43.47841" lon="6.27798">
        <ele>100.11</ele>
        <time>2018-09-16T09:23:46Z</time>
      </trkpt>
      <trkpt lat="43.47838" lon="6.27794">
        <ele>99.15</ele>
        <time>2018-09-16T09:24:19Z</time>
      </trkpt>
      <trkpt lat="43.47837" lon="6.27805">
        <ele>99.63</ele>
        <time>2018-09-16T09:24:34Z</time>
      </trkpt>
      <trkpt lat="43.4783" lon="6.27807">
        <ele>99.63</ele>
        <time>2018-09-16T09:24:51Z</time>
      </trkpt>
      <trkpt lat="43.47824" lon="6.2781">
        <ele>100.11</ele>
        <time>2018-09-16T09:25:08Z</time>
      </trkpt>
      <trkpt lat="43.47822" lon="6.27809">
        <ele>100.11</ele>
        <time>2018-09-16T09:25:40Z</time>
      </trkpt>
      <trkpt lat="43.47816" lon="6.27814">
        <ele>100.6</ele>
        <time>2018-09-16T09:25:53Z</time>
      </trkpt>
      <trkpt lat="43.47815" lon="6.27825">
        <ele>101.08</ele>
        <time>2018-09-16T09:26:05Z</time>
      </trkpt>
      <trkpt lat="43.4782" lon="6.2785">
        <ele>101.56</ele>
        <time>2018-09-16T09:26:21Z</time>
      </trkpt>
      <trkpt lat="43.47822" lon="6.2786">
        <ele>101.56</ele>
        <time>2018-09-16T09:26:34Z</time>
      </trkpt>
      <trkpt lat="43.47823" lon="6.27874">
        <ele>101.08</ele>
        <time>2018-09-16T09:26:45Z</time>
      </trkpt>
      <trkpt lat="43.47822" lon="6.27897">
        <ele>100.6</ele>
        <time>2018-09-16T09:27:00Z</time>
      </trkpt>
      <trkpt lat="43.47822" lon="6.27899">
        <ele>101.56</ele>
        <time>2018-09-16T09:27:01Z</time>
      </trkpt>
      <trkpt lat="43.47823" lon="6.27904">
        <ele>100.11</ele>
        <time>2018-09-16T09:27:04Z</time>
      </trkpt>
      <trkpt lat="43.47824" lon="6.27918">
        <ele>99.63</ele>
        <time>2018-09-16T09:27:14Z</time>
      </trkpt>
      <trkpt lat="43.47832" lon="6.27935">
        <ele>99.63</ele>
        <time>2018-09-16T09:27:27Z</time>
      </trkpt>
      <trkpt lat="43.47837" lon="6.27948">
        <ele>99.15</ele>
        <time>2018-09-16T09:27:36Z</time>
      </trkpt>
      <trkpt lat="43.47843" lon="6.27972">
        <ele>99.63</ele>
        <time>2018-09-16T09:27:52Z</time>
      </trkpt>
      <trkpt lat="43.47844" lon="6.27994">
        <ele>98.67</ele>
        <time>2018-09-16T09:28:06Z</time>
      </trkpt>
      <trkpt lat="43.4785" lon="6.28008">
        <ele>99.15</ele>
        <time>2018-09-16T09:28:19Z</time>
      </trkpt>
      <trkpt lat="43.47862" lon="6.28036">
        <ele>98.19</ele>
        <time>2018-09-16T09:28:37Z</time>
      </trkpt>
      <trkpt lat="43.47868" lon="6.28057">
        <ele>98.19</ele>
        <time>2018-09-16T09:28:51Z</time>
      </trkpt>
      <trkpt lat="43.47873" lon="6.28068">
        <ele>98.67</ele>
        <time>2018-09-16T09:29:05Z</time>
      </trkpt>
      <trkpt lat="43.47871" lon="6.2808">
        <ele>98.67</ele>
        <time>2018-09-16T09:29:17Z</time>
      </trkpt>
      <trkpt lat="43.4787" lon="6.28099">
        <ele>98.19</ele>
        <time>2018-09-16T09:29:30Z</time>
      </trkpt>
      <trkpt lat="43.47874" lon="6.28123">
        <ele>98.19</ele>
        <time>2018-09-16T09:29:45Z</time>
      </trkpt>
      <trkpt lat="43.47876" lon="6.28145">
        <ele>97.23</ele>
        <time>2018-09-16T09:30:00Z</time>
      </trkpt>
      <trkpt lat="43.47876" lon="6.28146">
        <ele>97.71</ele>
        <time>2018-09-16T09:30:01Z</time>
      </trkpt>
      <trkpt lat="43.47874" lon="6.2817">
        <ele>96.75</ele>
        <time>2018-09-16T09:30:17Z</time>
      </trkpt>
      <trkpt lat="43.47878" lon="6.28181">
        <ele>97.71</ele>
        <time>2018-09-16T09:30:32Z</time>
      </trkpt>
      <trkpt lat="43.47879" lon="6.282">
        <ele>96.75</ele>
        <time>2018-09-16T09:30:45Z</time>
      </trkpt>
      <trkpt lat="43.4788" lon="6.2821">
        <ele>96.75</ele>
        <time>2018-09-16T09:31:01Z</time>
      </trkpt>
      <trkpt lat="43.47879" lon="6.28227">
        <ele>96.27</ele>
        <time>2018-09-16T09:31:23Z</time>
      </trkpt>
      <trkpt lat="43.47878" lon="6.28246">
        <ele>96.75</ele>
        <time>2018-09-16T09:31:37Z</time>
      </trkpt>
      <trkpt lat="43.47877" lon="6.28269">
        <ele>96.75</ele>
        <time>2018-09-16T09:31:54Z</time>
      </trkpt>
      <trkpt lat="43.47875" lon="6.28288">
        <ele>96.75</ele>
        <time>2018-09-16T09:32:08Z</time>
      </trkpt>
      <trkpt lat="43.47875" lon="6.28308">
        <ele>96.75</ele>
        <time>2018-09-16T09:32:22Z</time>
      </trkpt>
      <trkpt lat="43.47871" lon="6.28335">
        <ele>96.27</ele>
        <time>2018-09-16T09:32:37Z</time>
      </trkpt>
      <trkpt lat="43.4787" lon="6.28347">
        <ele>96.27</ele>
        <time>2018-09-16T09:32:46Z</time>
      </trkpt>
      <trkpt lat="43.47861" lon="6.28372">
        <ele>96.27</ele>
        <time>2018-09-16T09:33:02Z</time>
      </trkpt>
      <trkpt lat="43.47849" lon="6.28384">
        <ele>96.75</ele>
        <time>2018-09-16T09:33:19Z</time>
      </trkpt>
      <trkpt lat="43.47839" lon="6.28392">
        <ele>96.75</ele>
        <time>2018-09-16T09:33:35Z</time>
      </trkpt>
      <trkpt lat="43.47826" lon="6.28409">
        <ele>97.71</ele>
        <time>2018-09-16T09:33:53Z</time>
      </trkpt>
      <trkpt lat="43.47811" lon="6.28427">
        <ele>99.15</ele>
        <time>2018-09-16T09:34:11Z</time>
      </trkpt>
      <trkpt lat="43.47807" lon="6.28436">
        <ele>99.15</ele>
        <time>2018-09-16T09:34:30Z</time>
      </trkpt>
      <trkpt lat="43.47804" lon="6.28441">
        <ele>99.15</ele>
        <time>2018-09-16T09:34:44Z</time>
      </trkpt>
      <trkpt lat="43.478" lon="6.28445">
        <ele>99.15</ele>
        <time>2018-09-16T09:34:58Z</time>
      </trkpt>
      <trkpt lat="43.47802" lon="6.28444">
        <ele>99.15</ele>
        <time>2018-09-16T09:35:17Z</time>
      </trkpt>
      <trkpt lat="43.47801" lon="6.28451">
        <ele>99.15</ele>
        <time>2018-09-16T09:35:35Z</time>
      </trkpt>
      <trkpt lat="43.47795" lon="6.28456">
        <ele>98.67</ele>
        <time>2018-09-16T09:35:49Z</time>
      </trkpt>
      <trkpt lat="43.47792" lon="6.2846">
        <ele>99.15</ele>
        <time>2018-09-16T09:36:13Z</time>
      </trkpt>
      <trkpt lat="43.47788" lon="6.28469">
        <ele>99.15</ele>
        <time>2018-09-16T09:36:37Z</time>
      </trkpt>
      <trkpt lat="43.47778" lon="6.28484">
        <ele>99.63</ele>
        <time>2018-09-16T09:36:52Z</time>
      </trkpt>
      <trkpt lat="43.47774" lon="6.2849">
        <ele>98.67</ele>
        <time>2018-09-16T09:36:57Z</time>
      </trkpt>
      <trkpt lat="43.47762" lon="6.28511">
        <ele>98.67</ele>
        <time>2018-09-16T09:37:15Z</time>
      </trkpt>
      <trkpt lat="43.47753" lon="6.2853">
        <ele>98.67</ele>
        <time>2018-09-16T09:37:31Z</time>
      </trkpt>
      <trkpt lat="43.47751" lon="6.28538">
        <ele>99.15</ele>
        <time>2018-09-16T09:37:42Z</time>
      </trkpt>
      <trkpt lat="43.47741" lon="6.28554">
        <ele>98.67</ele>
        <time>2018-09-16T09:37:57Z</time>
      </trkpt>
      <trkpt lat="43.47735" lon="6.28571">
        <ele>98.67</ele>
        <time>2018-09-16T09:38:11Z</time>
      </trkpt>
      <trkpt lat="43.47727" lon="6.28586">
        <ele>98.19</ele>
        <time>2018-09-16T09:38:24Z</time>
      </trkpt>
      <trkpt lat="43.47717" lon="6.28596">
        <ele>98.19</ele>
        <time>2018-09-16T09:38:38Z</time>
      </trkpt>
      <trkpt lat="43.47712" lon="6.28618">
        <ele>98.67</ele>
        <time>2018-09-16T09:38:52Z</time>
      </trkpt>
      <trkpt lat="43.47706" lon="6.28633">
        <ele>99.15</ele>
        <time>2018-09-16T09:39:07Z</time>
      </trkpt>
      <trkpt lat="43.47701" lon="6.28644">
        <ele>100.6</ele>
        <time>2018-09-16T09:39:22Z</time>
      </trkpt>
      <trkpt lat="43.47697" lon="6.28658">
        <ele>103</ele>
        <time>2018-09-16T09:39:39Z</time>
      </trkpt>
      <trkpt lat="43.477" lon="6.28667">
        <ele>103.48</ele>
        <time>2018-09-16T09:39:48Z</time>
      </trkpt>
      <trkpt lat="43.47707" lon="6.28681">
        <ele>103</ele>
        <time>2018-09-16T09:40:01Z</time>
      </trkpt>
      <trkpt lat="43.47717" lon="6.28695">
        <ele>103.48</ele>
        <time>2018-09-16T09:40:14Z</time>
      </trkpt>
      <trkpt lat="43.47721" lon="6.28704">
        <ele>103.48</ele>
        <time>2018-09-16T09:40:23Z</time>
      </trkpt>
      <trkpt lat="43.47726" lon="6.28718">
        <ele>103.48</ele>
        <time>2018-09-16T09:40:36Z</time>
      </trkpt>
      <trkpt lat="43.47732" lon="6.28726">
        <ele>103.48</ele>
        <time>2018-09-16T09:40:50Z</time>
      </trkpt>
      <trkpt lat="43.47737" lon="6.28732">
        <ele>103</ele>
        <time>2018-09-16T09:41:05Z</time>
      </trkpt>
      <trkpt lat="43.47741" lon="6.2874">
        <ele>103.48</ele>
        <time>2018-09-16T09:41:20Z</time>
      </trkpt>
      <trkpt lat="43.47746" lon="6.28748">
        <ele>103</ele>
        <time>2018-09-16T09:41:41Z</time>
      </trkpt>
      <trkpt lat="43.47744" lon="6.28747">
        <ele>103</ele>
        <time>2018-09-16T09:41:58Z</time>
      </trkpt>
      <trkpt lat="43.47742" lon="6.28747">
        <ele>103.48</ele>
        <time>2018-09-16T09:42:37Z</time>
      </trkpt>
      <trkpt lat="43.47742" lon="6.28745">
        <ele>103.96</ele>
        <time>2018-09-16T09:43:07Z</time>
      </trkpt>
      <trkpt lat="43.47751" lon="6.28754">
        <ele>103.48</ele>
        <time>2018-09-16T09:43:21Z</time>
      </trkpt>
      <trkpt lat="43.47754" lon="6.28764">
        <ele>103.96</ele>
        <time>2018-09-16T09:43:34Z</time>
      </trkpt>
      <trkpt lat="43.47754" lon="6.28768">
        <ele>103.96</ele>
        <time>2018-09-16T09:43:49Z</time>
      </trkpt>
      <trkpt lat="43.47756" lon="6.2877">
        <ele>103</ele>
        <time>2018-09-16T09:44:09Z</time>
      </trkpt>
      <trkpt lat="43.47753" lon="6.28773">
        <ele>103.48</ele>
        <time>2018-09-16T09:44:34Z</time>
      </trkpt>
      <trkpt lat="43.47755" lon="6.28776">
        <ele>104.44</ele>
        <time>2018-09-16T09:44:56Z</time>
      </trkpt>
      <trkpt lat="43.47761" lon="6.2878">
        <ele>103.48</ele>
        <time>2018-09-16T09:45:09Z</time>
      </trkpt>
      <trkpt lat="43.47769" lon="6.28785">
        <ele>103.96</ele>
        <time>2018-09-16T09:45:24Z</time>
      </trkpt>
      <trkpt lat="43.47776" lon="6.28792">
        <ele>103.48</ele>
        <time>2018-09-16T09:45:39Z</time>
      </trkpt>
      <trkpt lat="43.47785" lon="6.28801">
        <ele>103.48</ele>
        <time>2018-09-16T09:45:56Z</time>
      </trkpt>
      <trkpt lat="43.47791" lon="6.28808">
        <ele>103.48</ele>
        <time>2018-09-16T09:46:09Z</time>
      </trkpt>
      <trkpt lat="43.47789" lon="6.2881">
        <ele>103.48</ele>
        <time>2018-09-16T09:46:23Z</time>
      </trkpt>
      <trkpt lat="43.47787" lon="6.28816">
        <ele>103.48</ele>
        <time>2018-09-16T09:46:46Z</time>
      </trkpt>
      <trkpt lat="43.47793" lon="6.28821">
        <ele>103.48</ele>
        <time>2018-09-16T09:47:05Z</time>
      </trkpt>
      <trkpt lat="43.47793" lon="6.28821">
        <ele>103.96</ele>
        <time>2018-09-16T09:47:21Z</time>
      </trkpt>
      <trkpt lat="43.47802" lon="6.28823">
        <ele>104.44</ele>
        <time>2018-09-16T09:47:41Z</time>
      </trkpt>
      <trkpt lat="43.47812" lon="6.28827">
        <ele>103</ele>
        <time>2018-09-16T09:47:54Z</time>
      </trkpt>
      <trkpt lat="43.4782" lon="6.28839">
        <ele>103.48</ele>
        <time>2018-09-16T09:48:08Z</time>
      </trkpt>
      <trkpt lat="43.47823" lon="6.28842">
        <ele>103.48</ele>
        <time>2018-09-16T09:48:13Z</time>
      </trkpt>
      <trkpt lat="43.47834" lon="6.28847">
        <ele>103</ele>
        <time>2018-09-16T09:48:27Z</time>
      </trkpt>
      <trkpt lat="43.47846" lon="6.2885">
        <ele>103.48</ele>
        <time>2018-09-16T09:48:40Z</time>
      </trkpt>
      <trkpt lat="43.47853" lon="6.28853">
        <ele>103</ele>
        <time>2018-09-16T09:48:55Z</time>
      </trkpt>
      <trkpt lat="43.47863" lon="6.28858">
        <ele>103.48</ele>
        <time>2018-09-16T09:49:09Z</time>
      </trkpt>
      <trkpt lat="43.47867" lon="6.28864">
        <ele>103</ele>
        <time>2018-09-16T09:49:26Z</time>
      </trkpt>
      <trkpt lat="43.47874" lon="6.2887">
        <ele>103</ele>
        <time>2018-09-16T09:49:43Z</time>
      </trkpt>
      <trkpt lat="43.47875" lon="6.28871">
        <ele>103.48</ele>
        <time>2018-09-16T09:49:45Z</time>
      </trkpt>
      <trkpt lat="43.47883" lon="6.28877">
        <ele>102.52</ele>
        <time>2018-09-16T09:49:58Z</time>
      </trkpt>
      <trkpt lat="43.47889" lon="6.2888">
        <ele>103</ele>
        <time>2018-09-16T09:50:12Z</time>
      </trkpt>
      <trkpt lat="43.47891" lon="6.28881">
        <ele>102.52</ele>
        <time>2018-09-16T09:50:17Z</time>
      </trkpt>
      <trkpt lat="43.47898" lon="6.28883">
        <ele>103</ele>
        <time>2018-09-16T09:50:25Z</time>
      </trkpt>
      <trkpt lat="43.47905" lon="6.28887">
        <ele>103</ele>
        <time>2018-09-16T09:50:39Z</time>
      </trkpt>
      <trkpt lat="43.47914" lon="6.2889">
        <ele>103.48</ele>
        <time>2018-09-16T09:50:55Z</time>
      </trkpt>
      <trkpt lat="43.47921" lon="6.28891">
        <ele>102.52</ele>
        <time>2018-09-16T09:51:07Z</time>
      </trkpt>
      <trkpt lat="43.47932" lon="6.28893">
        <ele>103.48</ele>
        <time>2018-09-16T09:51:20Z</time>
      </trkpt>
      <trkpt lat="43.47939" lon="6.28895">
        <ele>103.48</ele>
        <time>2018-09-16T09:51:31Z</time>
      </trkpt>
      <trkpt lat="43.47948" lon="6.28894">
        <ele>103.96</ele>
        <time>2018-09-16T09:51:47Z</time>
      </trkpt>
      <trkpt lat="43.47959" lon="6.289">
        <ele>103.48</ele>
        <time>2018-09-16T09:52:05Z</time>
      </trkpt>
      <trkpt lat="43.4796" lon="6.28903">
        <ele>103.96</ele>
        <time>2018-09-16T09:52:26Z</time>
      </trkpt>
      <trkpt lat="43.47968" lon="6.28918">
        <ele>103.96</ele>
        <time>2018-09-16T09:52:44Z</time>
      </trkpt>
      <trkpt lat="43.47983" lon="6.28927">
        <ele>103</ele>
        <time>2018-09-16T09:53:01Z</time>
      </trkpt>
      <trkpt lat="43.47987" lon="6.28934">
        <ele>103</ele>
        <time>2018-09-16T09:53:23Z</time>
      </trkpt>
      <trkpt lat="43.47999" lon="6.28944">
        <ele>103.48</ele>
        <time>2018-09-16T09:53:45Z</time>
      </trkpt>
      <trkpt lat="43.48014" lon="6.28946">
        <ele>104.44</ele>
        <time>2018-09-16T09:54:04Z</time>
      </trkpt>
      <trkpt lat="43.4803" lon="6.28945">
        <ele>103.96</ele>
        <time>2018-09-16T09:54:19Z</time>
      </trkpt>
      <trkpt lat="43.48039" lon="6.28945">
        <ele>103.96</ele>
        <time>2018-09-16T09:54:33Z</time>
      </trkpt>
      <trkpt lat="43.48047" lon="6.28945">
        <ele>104.44</ele>
        <time>2018-09-16T09:54:47Z</time>
      </trkpt>
      <trkpt lat="43.48057" lon="6.28948">
        <ele>104.44</ele>
        <time>2018-09-16T09:55:04Z</time>
      </trkpt>
      <trkpt lat="43.48067" lon="6.28953">
        <ele>104.92</ele>
        <time>2018-09-16T09:55:21Z</time>
      </trkpt>
      <trkpt lat="43.48071" lon="6.28957">
        <ele>104.92</ele>
        <time>2018-09-16T09:55:40Z</time>
      </trkpt>
      <trkpt lat="43.48067" lon="6.28961">
        <ele>104.44</ele>
        <time>2018-09-16T09:55:56Z</time>
      </trkpt>
      <trkpt lat="43.48066" lon="6.28964">
        <ele>104.44</ele>
        <time>2018-09-16T09:56:15Z</time>
      </trkpt>
      <trkpt lat="43.48064" lon="6.28978">
        <ele>104.92</ele>
        <time>2018-09-16T09:56:33Z</time>
      </trkpt>
      <trkpt lat="43.48063" lon="6.28983">
        <ele>103.96</ele>
        <time>2018-09-16T09:56:49Z</time>
      </trkpt>
      <trkpt lat="43.48061" lon="6.28981">
        <ele>104.44</ele>
        <time>2018-09-16T09:57:18Z</time>
      </trkpt>
      <trkpt lat="43.48062" lon="6.28986">
        <ele>104.44</ele>
        <time>2018-09-16T09:57:52Z</time>
      </trkpt>
      <trkpt lat="43.48061" lon="6.28992">
        <ele>104.44</ele>
        <time>2018-09-16T09:58:12Z</time>
      </trkpt>
      <trkpt lat="43.48062" lon="6.28997">
        <ele>104.44</ele>
        <time>2018-09-16T09:58:17Z</time>
      </trkpt>
      <trkpt lat="43.48062" lon="6.28998">
        <ele>106.84</ele>
        <time>2018-09-16T09:58:19Z</time>
      </trkpt>
      <trkpt lat="43.48062" lon="6.29003">
        <ele>103.96</ele>
        <time>2018-09-16T09:58:24Z</time>
      </trkpt>
      <trkpt lat="43.48061" lon="6.29019">
        <ele>104.92</ele>
        <time>2018-09-16T09:58:38Z</time>
      </trkpt>
      <trkpt lat="43.4806" lon="6.29032">
        <ele>104.44</ele>
        <time>2018-09-16T09:58:54Z</time>
      </trkpt>
      <trkpt lat="43.48057" lon="6.29044">
        <ele>104.44</ele>
        <time>2018-09-16T09:59:07Z</time>
      </trkpt>
      <trkpt lat="43.48056" lon="6.29054">
        <ele>103.96</ele>
        <time>2018-09-16T09:59:22Z</time>
      </trkpt>
      <trkpt lat="43.4805" lon="6.29062">
        <ele>104.44</ele>
        <time>2018-09-16T09:59:38Z</time>
      </trkpt>
      <trkpt lat="43.48046" lon="6.2907">
        <ele>104.44</ele>
        <time>2018-09-16T09:59:55Z</time>
      </trkpt>
      <trkpt lat="43.48041" lon="6.29082">
        <ele>104.44</ele>
        <time>2018-09-16T10:00:10Z</time>
      </trkpt>
      <trkpt lat="43.48039" lon="6.29086">
        <ele>104.44</ele>
        <time>2018-09-16T10:00:21Z</time>
      </trkpt>
      <trkpt lat="43.48039" lon="6.29087">
        <ele>103.96</ele>
        <time>2018-09-16T10:00:24Z</time>
      </trkpt>
      <trkpt lat="43.48033" lon="6.29098">
        <ele>104.44</ele>
        <time>2018-09-16T10:00:36Z</time>
      </trkpt>
      <trkpt lat="43.48024" lon="6.29112">
        <ele>103.96</ele>
        <time>2018-09-16T10:00:52Z</time>
      </trkpt>
      <trkpt lat="43.48021" lon="6.29116">
        <ele>103.48</ele>
        <time>2018-09-16T10:00:58Z</time>
      </trkpt>
      <trkpt lat="43.48019" lon="6.29118">
        <ele>103</ele>
        <time>2018-09-16T10:01:01Z</time>
      </trkpt>
      <trkpt lat="43.48015" lon="6.29121">
        <ele>103.96</ele>
        <time>2018-09-16T10:01:06Z</time>
      </trkpt>
      <trkpt lat="43.4801" lon="6.29126">
        <ele>103.48</ele>
        <time>2018-09-16T10:01:17Z</time>
      </trkpt>
      <trkpt lat="43.48003" lon="6.29137">
        <ele>103.96</ele>
        <time>2018-09-16T10:01:40Z</time>
      </trkpt>
      <trkpt lat="43.48001" lon="6.29138">
        <ele>104.44</ele>
        <time>2018-09-16T10:01:42Z</time>
      </trkpt>
      <trkpt lat="43.47991" lon="6.2915">
        <ele>103</ele>
        <time>2018-09-16T10:01:56Z</time>
      </trkpt>
      <trkpt lat="43.47976" lon="6.29162">
        <ele>103.96</ele>
        <time>2018-09-16T10:02:14Z</time>
      </trkpt>
      <trkpt lat="43.47964" lon="6.29168">
        <ele>104.44</ele>
        <time>2018-09-16T10:02:33Z</time>
      </trkpt>
      <trkpt lat="43.47961" lon="6.29169">
        <ele>104.44</ele>
        <time>2018-09-16T10:02:56Z</time>
      </trkpt>
      <trkpt lat="43.47963" lon="6.2917">
        <ele>104.92</ele>
        <time>2018-09-16T10:03:14Z</time>
      </trkpt>
      <trkpt lat="43.47953" lon="6.29179">
        <ele>104.44</ele>
        <time>2018-09-16T10:03:31Z</time>
      </trkpt>
      <trkpt lat="43.47945" lon="6.29187">
        <ele>104.44</ele>
        <time>2018-09-16T10:03:48Z</time>
      </trkpt>
      <trkpt lat="43.47953" lon="6.29176">
        <ele>104.44</ele>
        <time>2018-09-16T10:04:02Z</time>
      </trkpt>
      <trkpt lat="43.47961" lon="6.29168">
        <ele>104.44</ele>
        <time>2018-09-16T10:04:15Z</time>
      </trkpt>
      <trkpt lat="43.47964" lon="6.29166">
        <ele>104.44</ele>
        <time>2018-09-16T10:04:19Z</time>
      </trkpt>
      <trkpt lat="43.47976" lon="6.29158">
        <ele>104.44</ele>
        <time>2018-09-16T10:04:33Z</time>
      </trkpt>
      <trkpt lat="43.47977" lon="6.29158">
        <ele>100.6</ele>
        <time>2018-09-16T10:04:38Z</time>
      </trkpt>
      <trkpt lat="43.47977" lon="6.29158">
        <ele>106.36</ele>
        <time>2018-09-16T10:04:39Z</time>
      </trkpt>
      <trkpt lat="43.47977" lon="6.29159">
        <ele>103</ele>
        <time>2018-09-16T10:04:41Z</time>
      </trkpt>
      <trkpt lat="43.47978" lon="6.29159">
        <ele>103</ele>
        <time>2018-09-16T10:04:42Z</time>
      </trkpt>
      <trkpt lat="43.47975" lon="6.29165">
        <ele>102.04</ele>
        <time>2018-09-16T10:04:54Z</time>
      </trkpt>
      <trkpt lat="43.47959" lon="6.29179">
        <ele>102.52</ele>
        <time>2018-09-16T10:05:12Z</time>
      </trkpt>
      <trkpt lat="43.47943" lon="6.29191">
        <ele>101.08</ele>
        <time>2018-09-16T10:05:28Z</time>
      </trkpt>
      <trkpt lat="43.47926" lon="6.29212">
        <ele>100.6</ele>
        <time>2018-09-16T10:05:48Z</time>
      </trkpt>
      <trkpt lat="43.47914" lon="6.2923">
        <ele>100.11</ele>
        <time>2018-09-16T10:06:04Z</time>
      </trkpt>
      <trkpt lat="43.47908" lon="6.29239">
        <ele>99.63</ele>
        <time>2018-09-16T10:06:16Z</time>
      </trkpt>
      <trkpt lat="43.47901" lon="6.29248">
        <ele>99.15</ele>
        <time>2018-09-16T10:06:27Z</time>
      </trkpt>
      <trkpt lat="43.47889" lon="6.29266">
        <ele>99.15</ele>
        <time>2018-09-16T10:06:43Z</time>
      </trkpt>
      <trkpt lat="43.47875" lon="6.2928">
        <ele>99.63</ele>
        <time>2018-09-16T10:06:58Z</time>
      </trkpt>
      <trkpt lat="43.47863" lon="6.29296">
        <ele>99.63</ele>
        <time>2018-09-16T10:07:14Z</time>
      </trkpt>
      <trkpt lat="43.4786" lon="6.293">
        <ele>99.63</ele>
        <time>2018-09-16T10:07:17Z</time>
      </trkpt>
      <trkpt lat="43.4785" lon="6.29309">
        <ele>99.63</ele>
        <time>2018-09-16T10:07:27Z</time>
      </trkpt>
      <trkpt lat="43.47835" lon="6.2932">
        <ele>100.11</ele>
        <time>2018-09-16T10:07:43Z</time>
      </trkpt>
      <trkpt lat="43.47824" lon="6.2933">
        <ele>100.11</ele>
        <time>2018-09-16T10:07:58Z</time>
      </trkpt>
      <trkpt lat="43.47814" lon="6.29343">
        <ele>100.11</ele>
        <time>2018-09-16T10:08:11Z</time>
      </trkpt>
      <trkpt lat="43.47797" lon="6.29361">
        <ele>100.11</ele>
        <time>2018-09-16T10:08:28Z</time>
      </trkpt>
      <trkpt lat="43.47795" lon="6.29364">
        <ele>100.11</ele>
        <time>2018-09-16T10:08:30Z</time>
      </trkpt>
      <trkpt lat="43.47786" lon="6.29382">
        <ele>101.56</ele>
        <time>2018-09-16T10:08:47Z</time>
      </trkpt>
      <trkpt lat="43.47786" lon="6.29396">
        <ele>101.08</ele>
        <time>2018-09-16T10:08:57Z</time>
      </trkpt>
      <trkpt lat="43.47787" lon="6.29426">
        <ele>100.11</ele>
        <time>2018-09-16T10:09:16Z</time>
      </trkpt>
      <trkpt lat="43.47788" lon="6.29442">
        <ele>99.63</ele>
        <time>2018-09-16T10:09:29Z</time>
      </trkpt>
      <trkpt lat="43.47786" lon="6.29468">
        <ele>98.19</ele>
        <time>2018-09-16T10:09:45Z</time>
      </trkpt>
      <trkpt lat="43.47778" lon="6.29486">
        <ele>98.67</ele>
        <time>2018-09-16T10:09:58Z</time>
      </trkpt>
      <trkpt lat="43.47762" lon="6.295">
        <ele>98.19</ele>
        <time>2018-09-16T10:10:14Z</time>
      </trkpt>
      <trkpt lat="43.4777" lon="6.29494">
        <ele>98.67</ele>
        <time>2018-09-16T10:10:30Z</time>
      </trkpt>
      <trkpt lat="43.47774" lon="6.29489">
        <ele>98.67</ele>
        <time>2018-09-16T10:10:34Z</time>
      </trkpt>
      <trkpt lat="43.47784" lon="6.29469">
        <ele>98.19</ele>
        <time>2018-09-16T10:10:53Z</time>
      </trkpt>
      <trkpt lat="43.47786" lon="6.29459">
        <ele>99.15</ele>
        <time>2018-09-16T10:11:06Z</time>
      </trkpt>
      <trkpt lat="43.47782" lon="6.29443">
        <ele>98.67</ele>
        <time>2018-09-16T10:11:22Z</time>
      </trkpt>
      <trkpt lat="43.47778" lon="6.29448">
        <ele>98.19</ele>
        <time>2018-09-16T10:11:36Z</time>
      </trkpt>
      <trkpt lat="43.47772" lon="6.29455">
        <ele>98.19</ele>
        <time>2018-09-16T10:11:52Z</time>
      </trkpt>
      <trkpt lat="43.4777" lon="6.29464">
        <ele>98.19</ele>
        <time>2018-09-16T10:12:09Z</time>
      </trkpt>
      <trkpt lat="43.47771" lon="6.29465">
        <ele>98.67</ele>
        <time>2018-09-16T10:12:26Z</time>
      </trkpt>
      <trkpt lat="43.47772" lon="6.29466">
        <ele>98.67</ele>
        <time>2018-09-16T10:12:47Z</time>
      </trkpt>
      <trkpt lat="43.47769" lon="6.2946">
        <ele>99.15</ele>
        <time>2018-09-16T10:13:27Z</time>
      </trkpt>
      <trkpt lat="43.47769" lon="6.29462">
        <ele>99.15</ele>
        <time>2018-09-16T10:13:57Z</time>
      </trkpt>
      <trkpt lat="43.47774" lon="6.29466">
        <ele>99.15</ele>
        <time>2018-09-16T10:14:30Z</time>
      </trkpt>
      <trkpt lat="43.47775" lon="6.29468">
        <ele>101.08</ele>
        <time>2018-09-16T10:14:55Z</time>
      </trkpt>
      <trkpt lat="43.47774" lon="6.29475">
        <ele>99.63</ele>
        <time>2018-09-16T10:15:16Z</time>
      </trkpt>
      <trkpt lat="43.4777" lon="6.29473">
        <ele>100.11</ele>
        <time>2018-09-16T10:15:37Z</time>
      </trkpt>
      <trkpt lat="43.47769" lon="6.29475">
        <ele>99.63</ele>
        <time>2018-09-16T10:15:59Z</time>
      </trkpt>
      <trkpt lat="43.47768" lon="6.29474">
        <ele>100.11</ele>
        <time>2018-09-16T10:16:17Z</time>
      </trkpt>
      <trkpt lat="43.47769" lon="6.29472">
        <ele>99.63</ele>
        <time>2018-09-16T10:16:33Z</time>
      </trkpt>
      <trkpt lat="43.47766" lon="6.29473">
        <ele>100.6</ele>
        <time>2018-09-16T10:17:01Z</time>
      </trkpt>
      <trkpt lat="43.47767" lon="6.29474">
        <ele>101.08</ele>
        <time>2018-09-16T10:17:32Z</time>
      </trkpt>
      <trkpt lat="43.47769" lon="6.29465">
        <ele>100.6</ele>
        <time>2018-09-16T10:17:52Z</time>
      </trkpt>
      <trkpt lat="43.4777" lon="6.29461">
        <ele>100.6</ele>
        <time>2018-09-16T10:18:36Z</time>
      </trkpt>
      <trkpt lat="43.47774" lon="6.29469">
        <ele>100.6</ele>
        <time>2018-09-16T10:18:57Z</time>
      </trkpt>
      <trkpt lat="43.47772" lon="6.29478">
        <ele>101.08</ele>
        <time>2018-09-16T10:19:27Z</time>
      </trkpt>
      <trkpt lat="43.47772" lon="6.29469">
        <ele>101.08</ele>
        <time>2018-09-16T10:19:51Z</time>
      </trkpt>
      <trkpt lat="43.47769" lon="6.29478">
        <ele>101.56</ele>
        <time>2018-09-16T10:20:16Z</time>
      </trkpt>
      <trkpt lat="43.47768" lon="6.29479">
        <ele>101.56</ele>
        <time>2018-09-16T10:20:40Z</time>
      </trkpt>
      <trkpt lat="43.47765" lon="6.29473">
        <ele>102.04</ele>
        <time>2018-09-16T10:21:10Z</time>
      </trkpt>
      <trkpt lat="43.47769" lon="6.29474">
        <ele>102.04</ele>
        <time>2018-09-16T10:21:29Z</time>
      </trkpt>
      <trkpt lat="43.47773" lon="6.29472">
        <ele>101.08</ele>
        <time>2018-09-16T10:21:53Z</time>
      </trkpt>
      <trkpt lat="43.4777" lon="6.29472">
        <ele>102.04</ele>
        <time>2018-09-16T10:22:18Z</time>
      </trkpt>
      <trkpt lat="43.47772" lon="6.29469">
        <ele>101.56</ele>
        <time>2018-09-16T10:22:39Z</time>
      </trkpt>
      <trkpt lat="43.47778" lon="6.29467">
        <ele>102.04</ele>
        <time>2018-09-16T10:23:04Z</time>
      </trkpt>
      <trkpt lat="43.47781" lon="6.29466">
        <ele>101.56</ele>
        <time>2018-09-16T10:23:21Z</time>
      </trkpt>
      <trkpt lat="43.4778" lon="6.29471">
        <ele>101.56</ele>
        <time>2018-09-16T10:23:37Z</time>
      </trkpt>
      <trkpt lat="43.47782" lon="6.29468">
        <ele>101.08</ele>
        <time>2018-09-16T10:23:51Z</time>
      </trkpt>
      <trkpt lat="43.47782" lon="6.29478">
        <ele>102.04</ele>
        <time>2018-09-16T10:24:04Z</time>
      </trkpt>
      <trkpt lat="43.47775" lon="6.29487">
        <ele>101.56</ele>
        <time>2018-09-16T10:24:24Z</time>
      </trkpt>
      <trkpt lat="43.47762" lon="6.29498">
        <ele>101.08</ele>
        <time>2018-09-16T10:24:39Z</time>
      </trkpt>
      <trkpt lat="43.4776" lon="6.295">
        <ele>101.08</ele>
        <time>2018-09-16T10:24:41Z</time>
      </trkpt>
      <trkpt lat="43.4774" lon="6.29514">
        <ele>100.11</ele>
        <time>2018-09-16T10:24:58Z</time>
      </trkpt>
      <trkpt lat="43.47736" lon="6.29517">
        <ele>100.11</ele>
        <time>2018-09-16T10:25:02Z</time>
      </trkpt>
      <trkpt lat="43.47733" lon="6.29522">
        <ele>99.63</ele>
        <time>2018-09-16T10:25:06Z</time>
      </trkpt>
      <trkpt lat="43.4772" lon="6.29531">
        <ele>99.15</ele>
        <time>2018-09-16T10:25:19Z</time>
      </trkpt>
      <trkpt lat="43.4771" lon="6.29539">
        <ele>98.67</ele>
        <time>2018-09-16T10:25:31Z</time>
      </trkpt>
      <trkpt lat="43.47708" lon="6.29542">
        <ele>98.67</ele>
        <time>2018-09-16T10:25:34Z</time>
      </trkpt>
      <trkpt lat="43.477" lon="6.2956">
        <ele>96.75</ele>
        <time>2018-09-16T10:25:47Z</time>
      </trkpt>
      <trkpt lat="43.47694" lon="6.29579">
        <ele>96.27</ele>
        <time>2018-09-16T10:26:00Z</time>
      </trkpt>
      <trkpt lat="43.47694" lon="6.29586">
        <ele>96.27</ele>
        <time>2018-09-16T10:26:03Z</time>
      </trkpt>
      <trkpt lat="43.47694" lon="6.29586">
        <ele>95.79</ele>
        <time>2018-09-16T10:26:18Z</time>
      </trkpt>
      <trkpt lat="43.47696" lon="6.29592">
        <ele>96.27</ele>
        <time>2018-09-16T10:26:30Z</time>
      </trkpt>
      <trkpt lat="43.47697" lon="6.29593">
        <ele>96.27</ele>
        <time>2018-09-16T10:26:46Z</time>
      </trkpt>
      <trkpt lat="43.47703" lon="6.29595">
        <ele>95.31</ele>
        <time>2018-09-16T10:27:06Z</time>
      </trkpt>
      <trkpt lat="43.47703" lon="6.29596">
        <ele>97.71</ele>
        <time>2018-09-16T10:27:08Z</time>
      </trkpt>
      <trkpt lat="43.47698" lon="6.29606">
        <ele>95.79</ele>
        <time>2018-09-16T10:27:15Z</time>
      </trkpt>
      <trkpt lat="43.47694" lon="6.29628">
        <ele>95.79</ele>
        <time>2018-09-16T10:27:30Z</time>
      </trkpt>
      <trkpt lat="43.47696" lon="6.29646">
        <ele>95.79</ele>
        <time>2018-09-16T10:27:43Z</time>
      </trkpt>
      <trkpt lat="43.47697" lon="6.29664">
        <ele>95.31</ele>
        <time>2018-09-16T10:27:57Z</time>
      </trkpt>
      <trkpt lat="43.47696" lon="6.29666">
        <ele>96.27</ele>
        <time>2018-09-16T10:27:58Z</time>
      </trkpt>
      <trkpt lat="43.47696" lon="6.29677">
        <ele>96.27</ele>
        <time>2018-09-16T10:28:05Z</time>
      </trkpt>
      <trkpt lat="43.47699" lon="6.29698">
        <ele>96.27</ele>
        <time>2018-09-16T10:28:20Z</time>
      </trkpt>
      <trkpt lat="43.47703" lon="6.29712">
        <ele>96.27</ele>
        <time>2018-09-16T10:28:31Z</time>
      </trkpt>
      <trkpt lat="43.47707" lon="6.29723">
        <ele>97.23</ele>
        <time>2018-09-16T10:28:45Z</time>
      </trkpt>
      <trkpt lat="43.47712" lon="6.29724">
        <ele>97.23</ele>
        <time>2018-09-16T10:29:06Z</time>
      </trkpt>
      <trkpt lat="43.47714" lon="6.29727">
        <ele>97.71</ele>
        <time>2018-09-16T10:29:32Z</time>
      </trkpt>
      <trkpt lat="43.47711" lon="6.2972">
        <ele>97.23</ele>
        <time>2018-09-16T10:29:58Z</time>
      </trkpt>
      <trkpt lat="43.47714" lon="6.29728">
        <ele>97.23</ele>
        <time>2018-09-16T10:30:24Z</time>
      </trkpt>
      <trkpt lat="43.47708" lon="6.29727">
        <ele>97.71</ele>
        <time>2018-09-16T10:30:51Z</time>
      </trkpt>
      <trkpt lat="43.4771" lon="6.2973">
        <ele>97.71</ele>
        <time>2018-09-16T10:31:16Z</time>
      </trkpt>
      <trkpt lat="43.47704" lon="6.29731">
        <ele>98.67</ele>
        <time>2018-09-16T10:31:37Z</time>
      </trkpt>
      <trkpt lat="43.47704" lon="6.29732">
        <ele>98.67</ele>
        <time>2018-09-16T10:31:38Z</time>
      </trkpt>
      <trkpt lat="43.47701" lon="6.29759">
        <ele>101.08</ele>
        <time>2018-09-16T10:31:52Z</time>
      </trkpt>
      <trkpt lat="43.47699" lon="6.29768">
        <ele>102.04</ele>
        <time>2018-09-16T10:32:05Z</time>
      </trkpt>
      <trkpt lat="43.47696" lon="6.29771">
        <ele>101.56</ele>
        <time>2018-09-16T10:32:18Z</time>
      </trkpt>
      <trkpt lat="43.47697" lon="6.29796">
        <ele>102.04</ele>
        <time>2018-09-16T10:32:34Z</time>
      </trkpt>
      <trkpt lat="43.47693" lon="6.29816">
        <ele>101.56</ele>
        <time>2018-09-16T10:32:47Z</time>
      </trkpt>
      <trkpt lat="43.47691" lon="6.29822">
        <ele>102.04</ele>
        <time>2018-09-16T10:32:51Z</time>
      </trkpt>
      <trkpt lat="43.47683" lon="6.29852">
        <ele>102.04</ele>
        <time>2018-09-16T10:33:10Z</time>
      </trkpt>
      <trkpt lat="43.4768" lon="6.29873">
        <ele>103.96</ele>
        <time>2018-09-16T10:33:26Z</time>
      </trkpt>
      <trkpt lat="43.47681" lon="6.29876">
        <ele>103.48</ele>
        <time>2018-09-16T10:33:29Z</time>
      </trkpt>
      <trkpt lat="43.47683" lon="6.29901">
        <ele>103.48</ele>
        <time>2018-09-16T10:33:46Z</time>
      </trkpt>
      <trkpt lat="43.47683" lon="6.29922">
        <ele>103.48</ele>
        <time>2018-09-16T10:34:01Z</time>
      </trkpt>
      <trkpt lat="43.47682" lon="6.29926">
        <ele>103.48</ele>
        <time>2018-09-16T10:34:05Z</time>
      </trkpt>
      <trkpt lat="43.47676" lon="6.29936">
        <ele>103</ele>
        <time>2018-09-16T10:34:13Z</time>
      </trkpt>
      <trkpt lat="43.47662" lon="6.29951">
        <ele>103</ele>
        <time>2018-09-16T10:34:29Z</time>
      </trkpt>
      <trkpt lat="43.4766" lon="6.29952">
        <ele>103.48</ele>
        <time>2018-09-16T10:34:31Z</time>
      </trkpt>
      <trkpt lat="43.47645" lon="6.29954">
        <ele>103.96</ele>
        <time>2018-09-16T10:34:48Z</time>
      </trkpt>
      <trkpt lat="43.47629" lon="6.29947">
        <ele>105.88</ele>
        <time>2018-09-16T10:35:03Z</time>
      </trkpt>
      <trkpt lat="43.47615" lon="6.29945">
        <ele>105.4</ele>
        <time>2018-09-16T10:35:18Z</time>
      </trkpt>
      <trkpt lat="43.47605" lon="6.29945">
        <ele>105.88</ele>
        <time>2018-09-16T10:35:35Z</time>
      </trkpt>
      <trkpt lat="43.47604" lon="6.29946">
        <ele>106.36</ele>
        <time>2018-09-16T10:35:59Z</time>
      </trkpt>
      <trkpt lat="43.47606" lon="6.29946">
        <ele>106.36</ele>
        <time>2018-09-16T10:36:36Z</time>
      </trkpt>
      <trkpt lat="43.47597" lon="6.29939">
        <ele>106.84</ele>
        <time>2018-09-16T10:36:54Z</time>
      </trkpt>
      <trkpt lat="43.47577" lon="6.29927">
        <ele>104.92</ele>
        <time>2018-09-16T10:37:13Z</time>
      </trkpt>
      <trkpt lat="43.47574" lon="6.29928">
        <ele>105.4</ele>
        <time>2018-09-16T10:37:35Z</time>
      </trkpt>
      <trkpt lat="43.47562" lon="6.29919">
        <ele>104.92</ele>
        <time>2018-09-16T10:37:54Z</time>
      </trkpt>
      <trkpt lat="43.47557" lon="6.29914">
        <ele>104.92</ele>
        <time>2018-09-16T10:38:09Z</time>
      </trkpt>
      <trkpt lat="43.47544" lon="6.29904">
        <ele>104.92</ele>
        <time>2018-09-16T10:38:33Z</time>
      </trkpt>
      <trkpt lat="43.4752" lon="6.2989">
        <ele>104.92</ele>
        <time>2018-09-16T10:38:54Z</time>
      </trkpt>
      <trkpt lat="43.475" lon="6.29875">
        <ele>105.88</ele>
        <time>2018-09-16T10:39:15Z</time>
      </trkpt>
      <trkpt lat="43.47489" lon="6.29866">
        <ele>106.84</ele>
        <time>2018-09-16T10:39:35Z</time>
      </trkpt>
      <trkpt lat="43.47479" lon="6.29858">
        <ele>107.32</ele>
        <time>2018-09-16T10:39:49Z</time>
      </trkpt>
      <trkpt lat="43.47469" lon="6.29855">
        <ele>106.84</ele>
        <time>2018-09-16T10:40:02Z</time>
      </trkpt>
      <trkpt lat="43.47453" lon="6.29851">
        <ele>107.32</ele>
        <time>2018-09-16T10:40:17Z</time>
      </trkpt>
      <trkpt lat="43.47449" lon="6.29848">
        <ele>106.84</ele>
        <time>2018-09-16T10:40:21Z</time>
      </trkpt>
      <trkpt lat="43.47432" lon="6.29841">
        <ele>106.36</ele>
        <time>2018-09-16T10:40:37Z</time>
      </trkpt>
      <trkpt lat="43.47428" lon="6.29839">
        <ele>106.84</ele>
        <time>2018-09-16T10:40:41Z</time>
      </trkpt>
      <trkpt lat="43.47413" lon="6.29829">
        <ele>105.88</ele>
        <time>2018-09-16T10:40:55Z</time>
      </trkpt>
      <trkpt lat="43.47405" lon="6.29827">
        <ele>105.88</ele>
        <time>2018-09-16T10:41:01Z</time>
      </trkpt>
      <trkpt lat="43.4738" lon="6.29812">
        <ele>105.88</ele>
        <time>2018-09-16T10:41:23Z</time>
      </trkpt>
      <trkpt lat="43.47372" lon="6.29805">
        <ele>105.88</ele>
        <time>2018-09-16T10:41:32Z</time>
      </trkpt>
      <trkpt lat="43.47345" lon="6.29803">
        <ele>104.44</ele>
        <time>2018-09-16T10:41:53Z</time>
      </trkpt>
      <trkpt lat="43.47321" lon="6.29801">
        <ele>102.52</ele>
        <time>2018-09-16T10:42:13Z</time>
      </trkpt>
      <trkpt lat="43.47301" lon="6.29795">
        <ele>101.08</ele>
        <time>2018-09-16T10:42:31Z</time>
      </trkpt>
      <trkpt lat="43.47275" lon="6.29792">
        <ele>99.15</ele>
        <time>2018-09-16T10:42:52Z</time>
      </trkpt>
      <trkpt lat="43.47252" lon="6.2979">
        <ele>99.15</ele>
        <time>2018-09-16T10:43:11Z</time>
      </trkpt>
      <trkpt lat="43.47229" lon="6.2979">
        <ele>98.19</ele>
        <time>2018-09-16T10:43:30Z</time>
      </trkpt>
      <trkpt lat="43.4721" lon="6.29788">
        <ele>98.19</ele>
        <time>2018-09-16T10:43:46Z</time>
      </trkpt>
      <trkpt lat="43.47194" lon="6.29787">
        <ele>98.67</ele>
        <time>2018-09-16T10:44:01Z</time>
      </trkpt>
      <trkpt lat="43.47177" lon="6.29787">
        <ele>98.19</ele>
        <time>2018-09-16T10:44:15Z</time>
      </trkpt>
      <trkpt lat="43.47157" lon="6.29787">
        <ele>98.19</ele>
        <time>2018-09-16T10:44:32Z</time>
      </trkpt>
      <trkpt lat="43.47142" lon="6.2978">
        <ele>99.63</ele>
        <time>2018-09-16T10:44:47Z</time>
      </trkpt>
      <trkpt lat="43.47125" lon="6.29774">
        <ele>101.08</ele>
        <time>2018-09-16T10:45:02Z</time>
      </trkpt>
      <trkpt lat="43.47115" lon="6.29773">
        <ele>102.52</ele>
        <time>2018-09-16T10:45:17Z</time>
      </trkpt>
      <trkpt lat="43.47111" lon="6.29776">
        <ele>102.52</ele>
        <time>2018-09-16T10:45:32Z</time>
      </trkpt>
      <trkpt lat="43.47108" lon="6.29784">
        <ele>102.52</ele>
        <time>2018-09-16T10:45:53Z</time>
      </trkpt>
      <trkpt lat="43.47105" lon="6.29784">
        <ele>103</ele>
        <time>2018-09-16T10:46:18Z</time>
      </trkpt>
      <trkpt lat="43.47095" lon="6.29766">
        <ele>103.96</ele>
        <time>2018-09-16T10:46:36Z</time>
      </trkpt>
      <trkpt lat="43.47097" lon="6.29758">
        <ele>105.88</ele>
        <time>2018-09-16T10:46:54Z</time>
      </trkpt>
      <trkpt lat="43.47097" lon="6.29765">
        <ele>105.88</ele>
        <time>2018-09-16T10:47:17Z</time>
      </trkpt>
      <trkpt lat="43.47098" lon="6.29758">
        <ele>105.4</ele>
        <time>2018-09-16T10:47:47Z</time>
      </trkpt>
      <trkpt lat="43.47102" lon="6.29741">
        <ele>107.81</ele>
        <time>2018-09-16T10:48:04Z</time>
      </trkpt>
      <trkpt lat="43.47102" lon="6.29723">
        <ele>109.25</ele>
        <time>2018-09-16T10:48:16Z</time>
      </trkpt>
      <trkpt lat="43.47107" lon="6.297">
        <ele>111.17</ele>
        <time>2018-09-16T10:48:32Z</time>
      </trkpt>
      <trkpt lat="43.47112" lon="6.29681">
        <ele>113.57</ele>
        <time>2018-09-16T10:48:48Z</time>
      </trkpt>
      <trkpt lat="43.47117" lon="6.29666">
        <ele>114.53</ele>
        <time>2018-09-16T10:49:01Z</time>
      </trkpt>
      <trkpt lat="43.47118" lon="6.29665">
        <ele>114.53</ele>
        <time>2018-09-16T10:49:02Z</time>
      </trkpt>
      <trkpt lat="43.47123" lon="6.29652">
        <ele>116.46</ele>
        <time>2018-09-16T10:49:15Z</time>
      </trkpt>
      <trkpt lat="43.47128" lon="6.2963">
        <ele>117.9</ele>
        <time>2018-09-16T10:49:29Z</time>
      </trkpt>
      <trkpt lat="43.47133" lon="6.29613">
        <ele>118.86</ele>
        <time>2018-09-16T10:49:42Z</time>
      </trkpt>
      <trkpt lat="43.47139" lon="6.29592">
        <ele>120.78</ele>
        <time>2018-09-16T10:50:00Z</time>
      </trkpt>
      <trkpt lat="43.47142" lon="6.29583">
        <ele>121.74</ele>
        <time>2018-09-16T10:50:15Z</time>
      </trkpt>
      <trkpt lat="43.47144" lon="6.29575">
        <ele>122.22</ele>
        <time>2018-09-16T10:50:22Z</time>
      </trkpt>
      <trkpt lat="43.47146" lon="6.2956">
        <ele>124.15</ele>
        <time>2018-09-16T10:50:37Z</time>
      </trkpt>
      <trkpt lat="43.47151" lon="6.29542">
        <ele>125.59</ele>
        <time>2018-09-16T10:50:52Z</time>
      </trkpt>
      <trkpt lat="43.47157" lon="6.29531">
        <ele>126.07</ele>
        <time>2018-09-16T10:51:05Z</time>
      </trkpt>
      <trkpt lat="43.47158" lon="6.29522">
        <ele>127.03</ele>
        <time>2018-09-16T10:51:17Z</time>
      </trkpt>
      <trkpt lat="43.47164" lon="6.29508">
        <ele>127.51</ele>
        <time>2018-09-16T10:51:31Z</time>
      </trkpt>
      <trkpt lat="43.47166" lon="6.29504">
        <ele>128.47</ele>
        <time>2018-09-16T10:51:35Z</time>
      </trkpt>
      <trkpt lat="43.47166" lon="6.29487">
        <ele>129.43</ele>
        <time>2018-09-16T10:51:46Z</time>
      </trkpt>
      <trkpt lat="43.47167" lon="6.29474">
        <ele>129.92</ele>
        <time>2018-09-16T10:51:58Z</time>
      </trkpt>
      <trkpt lat="43.47173" lon="6.29457">
        <ele>131.84</ele>
        <time>2018-09-16T10:52:14Z</time>
      </trkpt>
      <trkpt lat="43.47179" lon="6.2944">
        <ele>133.76</ele>
        <time>2018-09-16T10:52:31Z</time>
      </trkpt>
      <trkpt lat="43.47187" lon="6.29426">
        <ele>135.68</ele>
        <time>2018-09-16T10:52:45Z</time>
      </trkpt>
      <trkpt lat="43.47191" lon="6.29412">
        <ele>136.64</ele>
        <time>2018-09-16T10:52:57Z</time>
      </trkpt>
      <trkpt lat="43.47195" lon="6.29395">
        <ele>137.61</ele>
        <time>2018-09-16T10:53:14Z</time>
      </trkpt>
      <trkpt lat="43.47201" lon="6.29392">
        <ele>138.57</ele>
        <time>2018-09-16T10:53:28Z</time>
      </trkpt>
      <trkpt lat="43.47203" lon="6.2939">
        <ele>138.09</ele>
        <time>2018-09-16T10:53:46Z</time>
      </trkpt>
      <trkpt lat="43.47207" lon="6.29388">
        <ele>138.09</ele>
        <time>2018-09-16T10:54:16Z</time>
      </trkpt>
      <trkpt lat="43.47205" lon="6.2939">
        <ele>138.09</ele>
        <time>2018-09-16T10:54:38Z</time>
      </trkpt>
      <trkpt lat="43.47214" lon="6.29389">
        <ele>138.09</ele>
        <time>2018-09-16T10:54:57Z</time>
      </trkpt>
      <trkpt lat="43.47206" lon="6.29389">
        <ele>138.09</ele>
        <time>2018-09-16T10:55:14Z</time>
      </trkpt>
      <trkpt lat="43.47207" lon="6.29395">
        <ele>138.09</ele>
        <time>2018-09-16T10:55:26Z</time>
      </trkpt>
      <trkpt lat="43.4721" lon="6.29413">
        <ele>140.97</ele>
        <time>2018-09-16T10:55:42Z</time>
      </trkpt>
      <trkpt lat="43.47214" lon="6.29431">
        <ele>142.41</ele>
        <time>2018-09-16T10:55:59Z</time>
      </trkpt>
      <trkpt lat="43.47217" lon="6.29451">
        <ele>143.37</ele>
        <time>2018-09-16T10:56:14Z</time>
      </trkpt>
      <trkpt lat="43.47218" lon="6.29467">
        <ele>144.82</ele>
        <time>2018-09-16T10:56:27Z</time>
      </trkpt>
      <trkpt lat="43.47221" lon="6.29481">
        <ele>144.82</ele>
        <time>2018-09-16T10:56:37Z</time>
      </trkpt>
      <trkpt lat="43.47228" lon="6.29501">
        <ele>146.26</ele>
        <time>2018-09-16T10:56:54Z</time>
      </trkpt>
      <trkpt lat="43.47231" lon="6.29518">
        <ele>146.74</ele>
        <time>2018-09-16T10:57:08Z</time>
      </trkpt>
      <trkpt lat="43.47234" lon="6.29542">
        <ele>148.66</ele>
        <time>2018-09-16T10:57:25Z</time>
      </trkpt>
      <trkpt lat="43.47237" lon="6.2957">
        <ele>150.1</ele>
        <time>2018-09-16T10:57:43Z</time>
      </trkpt>
      <trkpt lat="43.47248" lon="6.2957">
        <ele>151.06</ele>
        <time>2018-09-16T10:57:57Z</time>
      </trkpt>
      <trkpt lat="43.47249" lon="6.29567">
        <ele>152.03</ele>
        <time>2018-09-16T10:57:59Z</time>
      </trkpt>
      <trkpt lat="43.47253" lon="6.29551">
        <ele>152.51</ele>
        <time>2018-09-16T10:58:16Z</time>
      </trkpt>
      <trkpt lat="43.47252" lon="6.29547">
        <ele>152.51</ele>
        <time>2018-09-16T10:58:45Z</time>
      </trkpt>
      <trkpt lat="43.47257" lon="6.29532">
        <ele>152.51</ele>
        <time>2018-09-16T10:59:01Z</time>
      </trkpt>
      <trkpt lat="43.4726" lon="6.29507">
        <ele>153.47</ele>
        <time>2018-09-16T10:59:19Z</time>
      </trkpt>
      <trkpt lat="43.47261" lon="6.29487">
        <ele>154.91</ele>
        <time>2018-09-16T10:59:35Z</time>
      </trkpt>
      <trkpt lat="43.47264" lon="6.29466">
        <ele>156.35</ele>
        <time>2018-09-16T10:59:52Z</time>
      </trkpt>
      <trkpt lat="43.47269" lon="6.29441">
        <ele>157.79</ele>
        <time>2018-09-16T11:00:10Z</time>
      </trkpt>
      <trkpt lat="43.47275" lon="6.29418">
        <ele>157.79</ele>
        <time>2018-09-16T11:00:28Z</time>
      </trkpt>
      <trkpt lat="43.47279" lon="6.29393">
        <ele>159.24</ele>
        <time>2018-09-16T11:00:46Z</time>
      </trkpt>
      <trkpt lat="43.47286" lon="6.29369">
        <ele>161.16</ele>
        <time>2018-09-16T11:01:06Z</time>
      </trkpt>
      <trkpt lat="43.47294" lon="6.29348">
        <ele>163.08</ele>
        <time>2018-09-16T11:01:27Z</time>
      </trkpt>
      <trkpt lat="43.473" lon="6.29337">
        <ele>165.96</ele>
        <time>2018-09-16T11:01:44Z</time>
      </trkpt>
      <trkpt lat="43.47305" lon="6.29322">
        <ele>167.41</ele>
        <time>2018-09-16T11:02:01Z</time>
      </trkpt>
      <trkpt lat="43.47307" lon="6.29293">
        <ele>167.41</ele>
        <time>2018-09-16T11:02:23Z</time>
      </trkpt>
      <trkpt lat="43.4731" lon="6.29269">
        <ele>167.41</ele>
        <time>2018-09-16T11:02:40Z</time>
      </trkpt>
      <trkpt lat="43.47311" lon="6.29266">
        <ele>167.41</ele>
        <time>2018-09-16T11:02:42Z</time>
      </trkpt>
      <trkpt lat="43.47317" lon="6.29248">
        <ele>168.37</ele>
        <time>2018-09-16T11:02:57Z</time>
      </trkpt>
      <trkpt lat="43.47316" lon="6.2923">
        <ele>167.41</ele>
        <time>2018-09-16T11:03:11Z</time>
      </trkpt>
      <trkpt lat="43.47312" lon="6.29215">
        <ele>166.45</ele>
        <time>2018-09-16T11:03:23Z</time>
      </trkpt>
      <trkpt lat="43.47301" lon="6.29197">
        <ele>163.56</ele>
        <time>2018-09-16T11:03:41Z</time>
      </trkpt>
      <trkpt lat="43.47296" lon="6.29188">
        <ele>162.6</ele>
        <time>2018-09-16T11:03:48Z</time>
      </trkpt>
      <trkpt lat="43.47289" lon="6.29164">
        <ele>161.64</ele>
        <time>2018-09-16T11:04:05Z</time>
      </trkpt>
      <trkpt lat="43.47288" lon="6.29159">
        <ele>161.64</ele>
        <time>2018-09-16T11:04:09Z</time>
      </trkpt>
      <trkpt lat="43.47279" lon="6.29138">
        <ele>160.68</ele>
        <time>2018-09-16T11:04:27Z</time>
      </trkpt>
      <trkpt lat="43.47265" lon="6.29121">
        <ele>161.64</ele>
        <time>2018-09-16T11:04:45Z</time>
      </trkpt>
      <trkpt lat="43.47252" lon="6.29113">
        <ele>162.12</ele>
        <time>2018-09-16T11:04:59Z</time>
      </trkpt>
      <trkpt lat="43.47241" lon="6.29109">
        <ele>162.12</ele>
        <time>2018-09-16T11:05:11Z</time>
      </trkpt>
      <trkpt lat="43.47231" lon="6.29105">
        <ele>162.6</ele>
        <time>2018-09-16T11:05:26Z</time>
      </trkpt>
      <trkpt lat="43.47223" lon="6.29105">
        <ele>162.12</ele>
        <time>2018-09-16T11:05:34Z</time>
      </trkpt>
      <trkpt lat="43.47209" lon="6.291">
        <ele>162.6</ele>
        <time>2018-09-16T11:05:51Z</time>
      </trkpt>
      <trkpt lat="43.47214" lon="6.29095">
        <ele>163.56</ele>
        <time>2018-09-16T11:06:04Z</time>
      </trkpt>
      <trkpt lat="43.47212" lon="6.29095">
        <ele>164.04</ele>
        <time>2018-09-16T11:06:20Z</time>
      </trkpt>
      <trkpt lat="43.47212" lon="6.29094">
        <ele>164.04</ele>
        <time>2018-09-16T11:06:39Z</time>
      </trkpt>
      <trkpt lat="43.47216" lon="6.29094">
        <ele>164.52</ele>
        <time>2018-09-16T11:07:07Z</time>
      </trkpt>
      <trkpt lat="43.47216" lon="6.29093">
        <ele>164.04</ele>
        <time>2018-09-16T11:07:26Z</time>
      </trkpt>
      <trkpt lat="43.47213" lon="6.29092">
        <ele>164.04</ele>
        <time>2018-09-16T11:07:44Z</time>
      </trkpt>
      <trkpt lat="43.47212" lon="6.29087">
        <ele>165</ele>
        <time>2018-09-16T11:07:57Z</time>
      </trkpt>
      <trkpt lat="43.47213" lon="6.29093">
        <ele>164.52</ele>
        <time>2018-09-16T11:08:17Z</time>
      </trkpt>
      <trkpt lat="43.47213" lon="6.29091">
        <ele>164.52</ele>
        <time>2018-09-16T11:08:33Z</time>
      </trkpt>
      <trkpt lat="43.47216" lon="6.29088">
        <ele>165.48</ele>
        <time>2018-09-16T11:08:53Z</time>
      </trkpt>
      <trkpt lat="43.47217" lon="6.29083">
        <ele>166.45</ele>
        <time>2018-09-16T11:09:13Z</time>
      </trkpt>
      <trkpt lat="43.4722" lon="6.29086">
        <ele>165.96</ele>
        <time>2018-09-16T11:09:27Z</time>
      </trkpt>
      <trkpt lat="43.4722" lon="6.29089">
        <ele>166.45</ele>
        <time>2018-09-16T11:09:45Z</time>
      </trkpt>
      <trkpt lat="43.47221" lon="6.29086">
        <ele>166.93</ele>
        <time>2018-09-16T11:10:03Z</time>
      </trkpt>
      <trkpt lat="43.47218" lon="6.29089">
        <ele>167.41</ele>
        <time>2018-09-16T11:10:28Z</time>
      </trkpt>
      <trkpt lat="43.47215" lon="6.29089">
        <ele>167.89</ele>
        <time>2018-09-16T11:10:48Z</time>
      </trkpt>
      <trkpt lat="43.47215" lon="6.29091">
        <ele>167.41</ele>
        <time>2018-09-16T11:11:13Z</time>
      </trkpt>
      <trkpt lat="43.47214" lon="6.29088">
        <ele>167.41</ele>
        <time>2018-09-16T11:11:28Z</time>
      </trkpt>
      <trkpt lat="43.4721" lon="6.29087">
        <ele>167.89</ele>
        <time>2018-09-16T11:12:06Z</time>
      </trkpt>
      <trkpt lat="43.47212" lon="6.29092">
        <ele>167.89</ele>
        <time>2018-09-16T11:12:40Z</time>
      </trkpt>
      <trkpt lat="43.47212" lon="6.29092">
        <ele>167.89</ele>
        <time>2018-09-16T11:13:08Z</time>
      </trkpt>
      <trkpt lat="43.47216" lon="6.29089">
        <ele>167.89</ele>
        <time>2018-09-16T11:13:35Z</time>
      </trkpt>
      <trkpt lat="43.47212" lon="6.29086">
        <ele>167.89</ele>
        <time>2018-09-16T11:13:49Z</time>
      </trkpt>
      <trkpt lat="43.47212" lon="6.29084">
        <ele>167.89</ele>
        <time>2018-09-16T11:14:07Z</time>
      </trkpt>
      <trkpt lat="43.47212" lon="6.29085">
        <ele>166.93</ele>
        <time>2018-09-16T11:14:29Z</time>
      </trkpt>
      <trkpt lat="43.47214" lon="6.29092">
        <ele>166.45</ele>
        <time>2018-09-16T11:14:50Z</time>
      </trkpt>
      <trkpt lat="43.47212" lon="6.29096">
        <ele>165.48</ele>
        <time>2018-09-16T11:15:08Z</time>
      </trkpt>
      <trkpt lat="43.47211" lon="6.291">
        <ele>164.52</ele>
        <time>2018-09-16T11:15:22Z</time>
      </trkpt>
      <trkpt lat="43.47207" lon="6.291">
        <ele>165</ele>
        <time>2018-09-16T11:15:41Z</time>
      </trkpt>
      <trkpt lat="43.47195" lon="6.29092">
        <ele>164.04</ele>
        <time>2018-09-16T11:15:59Z</time>
      </trkpt>
      <trkpt lat="43.47186" lon="6.29085">
        <ele>165.96</ele>
        <time>2018-09-16T11:16:18Z</time>
      </trkpt>
      <trkpt lat="43.47169" lon="6.29075">
        <ele>165.96</ele>
        <time>2018-09-16T11:16:35Z</time>
      </trkpt>
      <trkpt lat="43.47155" lon="6.29069">
        <ele>169.33</ele>
        <time>2018-09-16T11:16:50Z</time>
      </trkpt>
      <trkpt lat="43.47144" lon="6.2906">
        <ele>170.29</ele>
        <time>2018-09-16T11:17:08Z</time>
      </trkpt>
      <trkpt lat="43.47147" lon="6.29041">
        <ele>172.21</ele>
        <time>2018-09-16T11:17:22Z</time>
      </trkpt>
      <trkpt lat="43.4715" lon="6.29014">
        <ele>174.14</ele>
        <time>2018-09-16T11:17:42Z</time>
      </trkpt>
      <trkpt lat="43.47152" lon="6.28991">
        <ele>174.14</ele>
        <time>2018-09-16T11:17:58Z</time>
      </trkpt>
      <trkpt lat="43.47151" lon="6.28977">
        <ele>175.1</ele>
        <time>2018-09-16T11:18:15Z</time>
      </trkpt>
      <trkpt lat="43.47149" lon="6.28975">
        <ele>175.1</ele>
        <time>2018-09-16T11:18:21Z</time>
      </trkpt>
      <trkpt lat="43.47147" lon="6.28972">
        <ele>175.58</ele>
        <time>2018-09-16T11:18:24Z</time>
      </trkpt>
      <trkpt lat="43.47152" lon="6.28975">
        <ele>174.62</ele>
        <time>2018-09-16T11:18:43Z</time>
      </trkpt>
      <trkpt lat="43.47145" lon="6.28966">
        <ele>175.1</ele>
        <time>2018-09-16T11:19:00Z</time>
      </trkpt>
      <trkpt lat="43.47136" lon="6.28945">
        <ele>175.1</ele>
        <time>2018-09-16T11:19:20Z</time>
      </trkpt>
      <trkpt lat="43.47126" lon="6.28923">
        <ele>176.54</ele>
        <time>2018-09-16T11:19:39Z</time>
      </trkpt>
      <trkpt lat="43.47117" lon="6.28902">
        <ele>177.02</ele>
        <time>2018-09-16T11:19:55Z</time>
      </trkpt>
      <trkpt lat="43.47116" lon="6.28898">
        <ele>177.98</ele>
        <time>2018-09-16T11:20:14Z</time>
      </trkpt>
      <trkpt lat="43.47109" lon="6.28886">
        <ele>177.98</ele>
        <time>2018-09-16T11:20:28Z</time>
      </trkpt>
      <trkpt lat="43.47097" lon="6.28856">
        <ele>178.46</ele>
        <time>2018-09-16T11:20:50Z</time>
      </trkpt>
      <trkpt lat="43.47091" lon="6.28833">
        <ele>178.46</ele>
        <time>2018-09-16T11:21:07Z</time>
      </trkpt>
      <trkpt lat="43.47084" lon="6.28809">
        <ele>179.42</ele>
        <time>2018-09-16T11:21:24Z</time>
      </trkpt>
      <trkpt lat="43.47077" lon="6.28776">
        <ele>180.87</ele>
        <time>2018-09-16T11:21:47Z</time>
      </trkpt>
      <trkpt lat="43.47068" lon="6.2875">
        <ele>181.83</ele>
        <time>2018-09-16T11:22:07Z</time>
      </trkpt>
      <trkpt lat="43.47062" lon="6.28724">
        <ele>182.79</ele>
        <time>2018-09-16T11:22:26Z</time>
      </trkpt>
      <trkpt lat="43.47059" lon="6.28703">
        <ele>183.27</ele>
        <time>2018-09-16T11:22:42Z</time>
      </trkpt>
      <trkpt lat="43.47053" lon="6.28678">
        <ele>185.19</ele>
        <time>2018-09-16T11:23:00Z</time>
      </trkpt>
      <trkpt lat="43.47047" lon="6.28674">
        <ele>186.15</ele>
        <time>2018-09-16T11:23:07Z</time>
      </trkpt>
      <trkpt lat="43.47032" lon="6.28682">
        <ele>187.11</ele>
        <time>2018-09-16T11:23:24Z</time>
      </trkpt>
      <trkpt lat="43.4703" lon="6.28682">
        <ele>187.59</ele>
        <time>2018-09-16T11:23:26Z</time>
      </trkpt>
      <trkpt lat="43.4701" lon="6.28692">
        <ele>187.59</ele>
        <time>2018-09-16T11:23:46Z</time>
      </trkpt>
      <trkpt lat="43.46993" lon="6.287">
        <ele>189.04</ele>
        <time>2018-09-16T11:24:02Z</time>
      </trkpt>
      <trkpt lat="43.46977" lon="6.28708">
        <ele>190</ele>
        <time>2018-09-16T11:24:20Z</time>
      </trkpt>
      <trkpt lat="43.46962" lon="6.28721">
        <ele>190.48</ele>
        <time>2018-09-16T11:24:38Z</time>
      </trkpt>
      <trkpt lat="43.46946" lon="6.28736">
        <ele>191.44</ele>
        <time>2018-09-16T11:24:58Z</time>
      </trkpt>
      <trkpt lat="43.46925" lon="6.28752">
        <ele>191.92</ele>
        <time>2018-09-16T11:25:20Z</time>
      </trkpt>
      <trkpt lat="43.46905" lon="6.2877">
        <ele>191.44</ele>
        <time>2018-09-16T11:25:42Z</time>
      </trkpt>
      <trkpt lat="43.46884" lon="6.28789">
        <ele>191.44</ele>
        <time>2018-09-16T11:26:04Z</time>
      </trkpt>
      <trkpt lat="43.46867" lon="6.28806">
        <ele>191.92</ele>
        <time>2018-09-16T11:26:24Z</time>
      </trkpt>
      <trkpt lat="43.4685" lon="6.28818">
        <ele>191.92</ele>
        <time>2018-09-16T11:26:43Z</time>
      </trkpt>
      <trkpt lat="43.46834" lon="6.2883">
        <ele>192.4</ele>
        <time>2018-09-16T11:27:01Z</time>
      </trkpt>
      <trkpt lat="43.46815" lon="6.28837">
        <ele>193.36</ele>
        <time>2018-09-16T11:27:20Z</time>
      </trkpt>
      <trkpt lat="43.4681" lon="6.28836">
        <ele>193.36</ele>
        <time>2018-09-16T11:27:24Z</time>
      </trkpt>
      <trkpt lat="43.46796" lon="6.28821">
        <ele>193.36</ele>
        <time>2018-09-16T11:27:40Z</time>
      </trkpt>
      <trkpt lat="43.46781" lon="6.288">
        <ele>194.32</ele>
        <time>2018-09-16T11:28:00Z</time>
      </trkpt>
      <trkpt lat="43.46767" lon="6.28779">
        <ele>194.8</ele>
        <time>2018-09-16T11:28:22Z</time>
      </trkpt>
      <trkpt lat="43.46752" lon="6.28758">
        <ele>196.73</ele>
        <time>2018-09-16T11:28:43Z</time>
      </trkpt>
      <trkpt lat="43.46741" lon="6.28742">
        <ele>196.25</ele>
        <time>2018-09-16T11:29:01Z</time>
      </trkpt>
      <trkpt lat="43.46727" lon="6.28721">
        <ele>195.28</ele>
        <time>2018-09-16T11:29:20Z</time>
      </trkpt>
      <trkpt lat="43.46725" lon="6.28719">
        <ele>195.28</ele>
        <time>2018-09-16T11:29:22Z</time>
      </trkpt>
      <trkpt lat="43.46713" lon="6.28699">
        <ele>194.8</ele>
        <time>2018-09-16T11:29:40Z</time>
      </trkpt>
      <trkpt lat="43.46699" lon="6.28677">
        <ele>194.32</ele>
        <time>2018-09-16T11:29:59Z</time>
      </trkpt>
      <trkpt lat="43.46692" lon="6.28658">
        <ele>195.28</ele>
        <time>2018-09-16T11:30:14Z</time>
      </trkpt>
      <trkpt lat="43.46696" lon="6.2864">
        <ele>196.73</ele>
        <time>2018-09-16T11:30:29Z</time>
      </trkpt>
      <trkpt lat="43.46705" lon="6.28624">
        <ele>199.13</ele>
        <time>2018-09-16T11:30:45Z</time>
      </trkpt>
      <trkpt lat="43.46714" lon="6.28603">
        <ele>200.57</ele>
        <time>2018-09-16T11:31:05Z</time>
      </trkpt>
      <trkpt lat="43.46723" lon="6.28585">
        <ele>201.05</ele>
        <time>2018-09-16T11:31:23Z</time>
      </trkpt>
      <trkpt lat="43.46727" lon="6.28576">
        <ele>201.05</ele>
        <time>2018-09-16T11:31:31Z</time>
      </trkpt>
      <trkpt lat="43.46738" lon="6.28556">
        <ele>202.01</ele>
        <time>2018-09-16T11:31:51Z</time>
      </trkpt>
      <trkpt lat="43.46736" lon="6.28554">
        <ele>202.01</ele>
        <time>2018-09-16T11:32:17Z</time>
      </trkpt>
      <trkpt lat="43.46738" lon="6.28553">
        <ele>201.53</ele>
        <time>2018-09-16T11:32:37Z</time>
      </trkpt>
      <trkpt lat="43.46743" lon="6.2855">
        <ele>201.53</ele>
        <time>2018-09-16T11:32:49Z</time>
      </trkpt>
      <trkpt lat="43.46744" lon="6.28548">
        <ele>202.01</ele>
        <time>2018-09-16T11:32:51Z</time>
      </trkpt>
      <trkpt lat="43.46754" lon="6.28523">
        <ele>201.05</ele>
        <time>2018-09-16T11:33:08Z</time>
      </trkpt>
      <trkpt lat="43.46762" lon="6.28503">
        <ele>201.05</ele>
        <time>2018-09-16T11:33:23Z</time>
      </trkpt>
      <trkpt lat="43.46772" lon="6.28482">
        <ele>200.57</ele>
        <time>2018-09-16T11:33:37Z</time>
      </trkpt>
      <trkpt lat="43.46781" lon="6.28466">
        <ele>199.61</ele>
        <time>2018-09-16T11:33:52Z</time>
      </trkpt>
      <trkpt lat="43.46788" lon="6.28444">
        <ele>199.13</ele>
        <time>2018-09-16T11:34:07Z</time>
      </trkpt>
      <trkpt lat="43.46795" lon="6.28424">
        <ele>198.17</ele>
        <time>2018-09-16T11:34:22Z</time>
      </trkpt>
      <trkpt lat="43.46805" lon="6.28404">
        <ele>198.17</ele>
        <time>2018-09-16T11:34:36Z</time>
      </trkpt>
      <trkpt lat="43.46811" lon="6.28386">
        <ele>198.17</ele>
        <time>2018-09-16T11:34:49Z</time>
      </trkpt>
      <trkpt lat="43.46819" lon="6.28365">
        <ele>199.61</ele>
        <time>2018-09-16T11:35:04Z</time>
      </trkpt>
      <trkpt lat="43.46825" lon="6.28349">
        <ele>199.61</ele>
        <time>2018-09-16T11:35:18Z</time>
      </trkpt>
      <trkpt lat="43.46831" lon="6.2834">
        <ele>199.61</ele>
        <time>2018-09-16T11:35:27Z</time>
      </trkpt>
      <trkpt lat="43.46835" lon="6.28328">
        <ele>200.09</ele>
        <time>2018-09-16T11:35:37Z</time>
      </trkpt>
      <trkpt lat="43.46835" lon="6.28319">
        <ele>199.13</ele>
        <time>2018-09-16T11:35:52Z</time>
      </trkpt>
      <trkpt lat="43.46838" lon="6.28311">
        <ele>199.13</ele>
        <time>2018-09-16T11:36:08Z</time>
      </trkpt>
      <trkpt lat="43.46838" lon="6.28309">
        <ele>199.13</ele>
        <time>2018-09-16T11:36:10Z</time>
      </trkpt>
      <trkpt lat="43.46848" lon="6.28292">
        <ele>201.05</ele>
        <time>2018-09-16T11:36:25Z</time>
      </trkpt>
      <trkpt lat="43.46858" lon="6.2829">
        <ele>202.98</ele>
        <time>2018-09-16T11:36:38Z</time>
      </trkpt>
      <trkpt lat="43.46876" lon="6.28287">
        <ele>204.42</ele>
        <time>2018-09-16T11:36:55Z</time>
      </trkpt>
      <trkpt lat="43.46878" lon="6.28286">
        <ele>204.42</ele>
        <time>2018-09-16T11:36:57Z</time>
      </trkpt>
      <trkpt lat="43.46889" lon="6.28277">
        <ele>205.86</ele>
        <time>2018-09-16T11:37:10Z</time>
      </trkpt>
      <trkpt lat="43.46899" lon="6.28273">
        <ele>206.34</ele>
        <time>2018-09-16T11:37:20Z</time>
      </trkpt>
      <trkpt lat="43.46916" lon="6.28265">
        <ele>207.78</ele>
        <time>2018-09-16T11:37:38Z</time>
      </trkpt>
      <trkpt lat="43.46931" lon="6.28257">
        <ele>207.3</ele>
        <time>2018-09-16T11:37:53Z</time>
      </trkpt>
      <trkpt lat="43.46939" lon="6.28255">
        <ele>207.3</ele>
        <time>2018-09-16T11:38:09Z</time>
      </trkpt>
      <trkpt lat="43.46947" lon="6.28268">
        <ele>206.82</ele>
        <time>2018-09-16T11:38:23Z</time>
      </trkpt>
      <trkpt lat="43.46954" lon="6.28292">
        <ele>205.86</ele>
        <time>2018-09-16T11:38:39Z</time>
      </trkpt>
      <trkpt lat="43.46955" lon="6.28294">
        <ele>205.86</ele>
        <time>2018-09-16T11:38:41Z</time>
      </trkpt>
      <trkpt lat="43.46963" lon="6.28299">
        <ele>204.42</ele>
        <time>2018-09-16T11:38:52Z</time>
      </trkpt>
      <trkpt lat="43.4698" lon="6.28305">
        <ele>203.46</ele>
        <time>2018-09-16T11:39:07Z</time>
      </trkpt>
      <trkpt lat="43.46996" lon="6.28301">
        <ele>202.01</ele>
        <time>2018-09-16T11:39:21Z</time>
      </trkpt>
      <trkpt lat="43.47006" lon="6.28291">
        <ele>199.61</ele>
        <time>2018-09-16T11:39:36Z</time>
      </trkpt>
      <trkpt lat="43.47012" lon="6.28282">
        <ele>199.61</ele>
        <time>2018-09-16T11:39:46Z</time>
      </trkpt>
      <trkpt lat="43.47026" lon="6.28267">
        <ele>198.17</ele>
        <time>2018-09-16T11:40:03Z</time>
      </trkpt>
      <trkpt lat="43.47038" lon="6.28252">
        <ele>196.73</ele>
        <time>2018-09-16T11:40:19Z</time>
      </trkpt>
      <trkpt lat="43.4705" lon="6.28237">
        <ele>195.28</ele>
        <time>2018-09-16T11:40:37Z</time>
      </trkpt>
      <trkpt lat="43.47061" lon="6.28223">
        <ele>191.92</ele>
        <time>2018-09-16T11:40:54Z</time>
      </trkpt>
      <trkpt lat="43.47072" lon="6.28212">
        <ele>190.48</ele>
        <time>2018-09-16T11:41:09Z</time>
      </trkpt>
      <trkpt lat="43.47073" lon="6.28211">
        <ele>190.48</ele>
        <time>2018-09-16T11:41:10Z</time>
      </trkpt>
      <trkpt lat="43.47085" lon="6.28201">
        <ele>189.52</ele>
        <time>2018-09-16T11:41:24Z</time>
      </trkpt>
      <trkpt lat="43.47095" lon="6.28195">
        <ele>188.08</ele>
        <time>2018-09-16T11:41:38Z</time>
      </trkpt>
      <trkpt lat="43.47107" lon="6.2819">
        <ele>185.67</ele>
        <time>2018-09-16T11:41:52Z</time>
      </trkpt>
      <trkpt lat="43.47117" lon="6.28185">
        <ele>184.23</ele>
        <time>2018-09-16T11:42:08Z</time>
      </trkpt>
      <trkpt lat="43.47117" lon="6.28184">
        <ele>184.71</ele>
        <time>2018-09-16T11:42:26Z</time>
      </trkpt>
      <trkpt lat="43.47117" lon="6.28178">
        <ele>183.75</ele>
        <time>2018-09-16T11:42:55Z</time>
      </trkpt>
      <trkpt lat="43.47115" lon="6.28178">
        <ele>183.75</ele>
        <time>2018-09-16T11:43:18Z</time>
      </trkpt>
      <trkpt lat="43.47115" lon="6.28174">
        <ele>184.23</ele>
        <time>2018-09-16T11:43:48Z</time>
      </trkpt>
      <trkpt lat="43.47118" lon="6.28174">
        <ele>184.23</ele>
        <time>2018-09-16T11:44:09Z</time>
      </trkpt>
      <trkpt lat="43.47118" lon="6.28176">
        <ele>184.23</ele>
        <time>2018-09-16T11:44:19Z</time>
      </trkpt>
      <trkpt lat="43.47117" lon="6.28178">
        <ele>183.75</ele>
        <time>2018-09-16T11:44:40Z</time>
      </trkpt>
      <trkpt lat="43.47119" lon="6.28178">
        <ele>183.75</ele>
        <time>2018-09-16T11:45:02Z</time>
      </trkpt>
      <trkpt lat="43.47127" lon="6.28174">
        <ele>182.79</ele>
        <time>2018-09-16T11:45:13Z</time>
      </trkpt>
      <trkpt lat="43.47139" lon="6.28163">
        <ele>182.31</ele>
        <time>2018-09-16T11:45:27Z</time>
      </trkpt>
      <trkpt lat="43.4715" lon="6.2815">
        <ele>180.38</ele>
        <time>2018-09-16T11:45:44Z</time>
      </trkpt>
      <trkpt lat="43.47151" lon="6.28144">
        <ele>179.42</ele>
        <time>2018-09-16T11:45:50Z</time>
      </trkpt>
      <trkpt lat="43.47143" lon="6.2813">
        <ele>176.54</ele>
        <time>2018-09-16T11:46:04Z</time>
      </trkpt>
      <trkpt lat="43.47137" lon="6.28121">
        <ele>175.1</ele>
        <time>2018-09-16T11:46:18Z</time>
      </trkpt>
      <trkpt lat="43.4714" lon="6.2811">
        <ele>173.17</ele>
        <time>2018-09-16T11:46:32Z</time>
      </trkpt>
      <trkpt lat="43.47143" lon="6.28098">
        <ele>171.73</ele>
        <time>2018-09-16T11:46:46Z</time>
      </trkpt>
      <trkpt lat="43.47146" lon="6.2809">
        <ele>170.29</ele>
        <time>2018-09-16T11:47:02Z</time>
      </trkpt>
      <trkpt lat="43.47152" lon="6.28079">
        <ele>168.37</ele>
        <time>2018-09-16T11:47:15Z</time>
      </trkpt>
      <trkpt lat="43.47161" lon="6.2806">
        <ele>165.96</ele>
        <time>2018-09-16T11:47:30Z</time>
      </trkpt>
      <trkpt lat="43.47165" lon="6.28049">
        <ele>166.45</ele>
        <time>2018-09-16T11:47:45Z</time>
      </trkpt>
      <trkpt lat="43.47166" lon="6.28048">
        <ele>165.48</ele>
        <time>2018-09-16T11:47:46Z</time>
      </trkpt>
      <trkpt lat="43.47176" lon="6.28038">
        <ele>163.56</ele>
        <time>2018-09-16T11:48:00Z</time>
      </trkpt>
      <trkpt lat="43.47192" lon="6.28027">
        <ele>162.12</ele>
        <time>2018-09-16T11:48:19Z</time>
      </trkpt>
      <trkpt lat="43.47208" lon="6.28017">
        <ele>159.24</ele>
        <time>2018-09-16T11:48:37Z</time>
      </trkpt>
      <trkpt lat="43.47217" lon="6.28015">
        <ele>158.27</ele>
        <time>2018-09-16T11:48:54Z</time>
      </trkpt>
      <trkpt lat="43.47219" lon="6.28015">
        <ele>158.75</ele>
        <time>2018-09-16T11:49:02Z</time>
      </trkpt>
      <trkpt lat="43.47221" lon="6.28014">
        <ele>157.79</ele>
        <time>2018-09-16T11:49:04Z</time>
      </trkpt>
      <trkpt lat="43.47237" lon="6.28008">
        <ele>155.87</ele>
        <time>2018-09-16T11:49:22Z</time>
      </trkpt>
      <trkpt lat="43.47238" lon="6.28008">
        <ele>156.35</ele>
        <time>2018-09-16T11:49:23Z</time>
      </trkpt>
      <trkpt lat="43.4724" lon="6.28007">
        <ele>155.87</ele>
        <time>2018-09-16T11:49:25Z</time>
      </trkpt>
      <trkpt lat="43.47244" lon="6.28006">
        <ele>156.35</ele>
        <time>2018-09-16T11:49:29Z</time>
      </trkpt>
      <trkpt lat="43.47258" lon="6.27998">
        <ele>155.87</ele>
        <time>2018-09-16T11:49:44Z</time>
      </trkpt>
      <trkpt lat="43.47266" lon="6.2799">
        <ele>155.39</ele>
        <time>2018-09-16T11:49:53Z</time>
      </trkpt>
      <trkpt lat="43.47279" lon="6.27986">
        <ele>155.39</ele>
        <time>2018-09-16T11:50:05Z</time>
      </trkpt>
      <trkpt lat="43.47285" lon="6.27984">
        <ele>154.91</ele>
        <time>2018-09-16T11:50:11Z</time>
      </trkpt>
      <trkpt lat="43.47296" lon="6.2798">
        <ele>152.99</ele>
        <time>2018-09-16T11:50:25Z</time>
      </trkpt>
      <trkpt lat="43.47308" lon="6.2798">
        <ele>151.54</ele>
        <time>2018-09-16T11:50:37Z</time>
      </trkpt>
      <trkpt lat="43.47323" lon="6.27977">
        <ele>149.62</ele>
        <time>2018-09-16T11:50:55Z</time>
      </trkpt>
      <trkpt lat="43.47325" lon="6.27977">
        <ele>148.66</ele>
        <time>2018-09-16T11:50:57Z</time>
      </trkpt>
      <trkpt lat="43.47337" lon="6.27989">
        <ele>148.66</ele>
        <time>2018-09-16T11:51:12Z</time>
      </trkpt>
      <trkpt lat="43.47345" lon="6.28012">
        <ele>151.06</ele>
        <time>2018-09-16T11:51:30Z</time>
      </trkpt>
      <trkpt lat="43.47352" lon="6.28033">
        <ele>151.06</ele>
        <time>2018-09-16T11:51:45Z</time>
      </trkpt>
      <trkpt lat="43.47355" lon="6.28041">
        <ele>151.06</ele>
        <time>2018-09-16T11:51:51Z</time>
      </trkpt>
      <trkpt lat="43.47358" lon="6.28042">
        <ele>150.58</ele>
        <time>2018-09-16T11:52:05Z</time>
      </trkpt>
      <trkpt lat="43.47358" lon="6.28063">
        <ele>151.06</ele>
        <time>2018-09-16T11:52:21Z</time>
      </trkpt>
      <trkpt lat="43.47364" lon="6.28086">
        <ele>151.06</ele>
        <time>2018-09-16T11:52:37Z</time>
      </trkpt>
      <trkpt lat="43.47367" lon="6.28099">
        <ele>151.06</ele>
        <time>2018-09-16T11:52:55Z</time>
      </trkpt>
      <trkpt lat="43.47367" lon="6.28101">
        <ele>150.58</ele>
        <time>2018-09-16T11:53:11Z</time>
      </trkpt>
      <trkpt lat="43.47365" lon="6.28099">
        <ele>151.54</ele>
        <time>2018-09-16T11:53:27Z</time>
      </trkpt>
      <trkpt lat="43.47363" lon="6.28098">
        <ele>151.54</ele>
        <time>2018-09-16T11:53:53Z</time>
      </trkpt>
      <trkpt lat="43.47362" lon="6.28099">
        <ele>151.06</ele>
        <time>2018-09-16T11:54:24Z</time>
      </trkpt>
      <trkpt lat="43.47364" lon="6.28096">
        <ele>151.06</ele>
        <time>2018-09-16T11:54:37Z</time>
      </trkpt>
      <trkpt lat="43.47364" lon="6.28098">
        <ele>152.03</ele>
        <time>2018-09-16T11:54:57Z</time>
      </trkpt>
      <trkpt lat="43.47365" lon="6.281">
        <ele>151.06</ele>
        <time>2018-09-16T11:55:13Z</time>
      </trkpt>
      <trkpt lat="43.47363" lon="6.28087">
        <ele>151.54</ele>
        <time>2018-09-16T11:55:28Z</time>
      </trkpt>
      <trkpt lat="43.47362" lon="6.28084">
        <ele>152.03</ele>
        <time>2018-09-16T11:55:45Z</time>
      </trkpt>
      <trkpt lat="43.47362" lon="6.28082">
        <ele>151.54</ele>
        <time>2018-09-16T11:56:07Z</time>
      </trkpt>
      <trkpt lat="43.47364" lon="6.28077">
        <ele>151.06</ele>
        <time>2018-09-16T11:56:39Z</time>
      </trkpt>
      <trkpt lat="43.47361" lon="6.28083">
        <ele>151.54</ele>
        <time>2018-09-16T11:57:26Z</time>
      </trkpt>
      <trkpt lat="43.47366" lon="6.28095">
        <ele>151.06</ele>
        <time>2018-09-16T11:57:40Z</time>
      </trkpt>
      <trkpt lat="43.47367" lon="6.28105">
        <ele>150.58</ele>
        <time>2018-09-16T11:58:00Z</time>
      </trkpt>
      <trkpt lat="43.47366" lon="6.28104">
        <ele>151.06</ele>
        <time>2018-09-16T11:58:29Z</time>
      </trkpt>
      <trkpt lat="43.47368" lon="6.28103">
        <ele>151.06</ele>
        <time>2018-09-16T11:58:46Z</time>
      </trkpt>
      <trkpt lat="43.47365" lon="6.28097">
        <ele>151.54</ele>
        <time>2018-09-16T11:59:04Z</time>
      </trkpt>
      <trkpt lat="43.47367" lon="6.28106">
        <ele>151.06</ele>
        <time>2018-09-16T11:59:23Z</time>
      </trkpt>
      <trkpt lat="43.47365" lon="6.28102">
        <ele>151.06</ele>
        <time>2018-09-16T11:59:41Z</time>
      </trkpt>
      <trkpt lat="43.47366" lon="6.28101">
        <ele>151.54</ele>
        <time>2018-09-16T11:59:56Z</time>
      </trkpt>
      <trkpt lat="43.47365" lon="6.28099">
        <ele>151.54</ele>
        <time>2018-09-16T12:00:15Z</time>
      </trkpt>
      <trkpt lat="43.47366" lon="6.28097">
        <ele>151.54</ele>
        <time>2018-09-16T12:00:39Z</time>
      </trkpt>
      <trkpt lat="43.47365" lon="6.28097">
        <ele>152.03</ele>
        <time>2018-09-16T12:00:55Z</time>
      </trkpt>
      <trkpt lat="43.47369" lon="6.28106">
        <ele>151.06</ele>
        <time>2018-09-16T12:01:07Z</time>
      </trkpt>
      <trkpt lat="43.47379" lon="6.28128">
        <ele>150.1</ele>
        <time>2018-09-16T12:01:25Z</time>
      </trkpt>
      <trkpt lat="43.47379" lon="6.28129">
        <ele>150.58</ele>
        <time>2018-09-16T12:01:30Z</time>
      </trkpt>
      <trkpt lat="43.47373" lon="6.2812">
        <ele>151.54</ele>
        <time>2018-09-16T12:01:37Z</time>
      </trkpt>
      <trkpt lat="43.47364" lon="6.28093">
        <ele>150.58</ele>
        <time>2018-09-16T12:01:58Z</time>
      </trkpt>
      <trkpt lat="43.47366" lon="6.28096">
        <ele>151.06</ele>
        <time>2018-09-16T12:02:16Z</time>
      </trkpt>
      <trkpt lat="43.47368" lon="6.28097">
        <ele>151.54</ele>
        <time>2018-09-16T12:02:37Z</time>
      </trkpt>
      <trkpt lat="43.47365" lon="6.28095">
        <ele>151.06</ele>
        <time>2018-09-16T12:03:05Z</time>
      </trkpt>
      <trkpt lat="43.47358" lon="6.28073">
        <ele>151.54</ele>
        <time>2018-09-16T12:03:22Z</time>
      </trkpt>
      <trkpt lat="43.47354" lon="6.28052">
        <ele>151.06</ele>
        <time>2018-09-16T12:03:37Z</time>
      </trkpt>
      <trkpt lat="43.47349" lon="6.28029">
        <ele>151.06</ele>
        <time>2018-09-16T12:03:52Z</time>
      </trkpt>
      <trkpt lat="43.47344" lon="6.28012">
        <ele>151.06</ele>
        <time>2018-09-16T12:04:07Z</time>
      </trkpt>
      <trkpt lat="43.47342" lon="6.28005">
        <ele>150.58</ele>
        <time>2018-09-16T12:04:18Z</time>
      </trkpt>
      <trkpt lat="43.47344" lon="6.27986">
        <ele>149.62</ele>
        <time>2018-09-16T12:04:34Z</time>
      </trkpt>
      <trkpt lat="43.47348" lon="6.27974">
        <ele>147.22</ele>
        <time>2018-09-16T12:04:47Z</time>
      </trkpt>
      <trkpt lat="43.47354" lon="6.27969">
        <ele>146.74</ele>
        <time>2018-09-16T12:04:58Z</time>
      </trkpt>
      <trkpt lat="43.47365" lon="6.27965">
        <ele>143.85</ele>
        <time>2018-09-16T12:05:09Z</time>
      </trkpt>
      <trkpt lat="43.47381" lon="6.27966">
        <ele>142.41</ele>
        <time>2018-09-16T12:05:27Z</time>
      </trkpt>
      <trkpt lat="43.47392" lon="6.27971">
        <ele>140.97</ele>
        <time>2018-09-16T12:05:43Z</time>
      </trkpt>
      <trkpt lat="43.47404" lon="6.27965">
        <ele>140.01</ele>
        <time>2018-09-16T12:05:56Z</time>
      </trkpt>
      <trkpt lat="43.4742" lon="6.27945">
        <ele>139.53</ele>
        <time>2018-09-16T12:06:15Z</time>
      </trkpt>
      <trkpt lat="43.47437" lon="6.27929">
        <ele>139.05</ele>
        <time>2018-09-16T12:06:34Z</time>
      </trkpt>
      <trkpt lat="43.47455" lon="6.27923">
        <ele>136.64</ele>
        <time>2018-09-16T12:06:51Z</time>
      </trkpt>
      <trkpt lat="43.4746" lon="6.27917">
        <ele>136.16</ele>
        <time>2018-09-16T12:06:58Z</time>
      </trkpt>
      <trkpt lat="43.47472" lon="6.27899">
        <ele>135.2</ele>
        <time>2018-09-16T12:07:15Z</time>
      </trkpt>
      <trkpt lat="43.47489" lon="6.2789">
        <ele>133.76</ele>
        <time>2018-09-16T12:07:34Z</time>
      </trkpt>
      <trkpt lat="43.47503" lon="6.27867">
        <ele>131.84</ele>
        <time>2018-09-16T12:07:52Z</time>
      </trkpt>
      <trkpt lat="43.47508" lon="6.27851">
        <ele>130.4</ele>
        <time>2018-09-16T12:08:05Z</time>
      </trkpt>
      <trkpt lat="43.47515" lon="6.27841">
        <ele>129.43</ele>
        <time>2018-09-16T12:08:21Z</time>
      </trkpt>
      <trkpt lat="43.47522" lon="6.27828">
        <ele>126.55</ele>
        <time>2018-09-16T12:08:35Z</time>
      </trkpt>
      <trkpt lat="43.47526" lon="6.27813">
        <ele>124.63</ele>
        <time>2018-09-16T12:08:51Z</time>
      </trkpt>
      <trkpt lat="43.47532" lon="6.278">
        <ele>122.71</ele>
        <time>2018-09-16T12:09:07Z</time>
      </trkpt>
      <trkpt lat="43.47537" lon="6.27782">
        <ele>120.78</ele>
        <time>2018-09-16T12:09:23Z</time>
      </trkpt>
      <trkpt lat="43.47541" lon="6.27765">
        <ele>118.86</ele>
        <time>2018-09-16T12:09:36Z</time>
      </trkpt>
      <trkpt lat="43.4755" lon="6.27743">
        <ele>116.46</ele>
        <time>2018-09-16T12:09:57Z</time>
      </trkpt>
      <trkpt lat="43.47554" lon="6.27735">
        <ele>115.5</ele>
        <time>2018-09-16T12:10:04Z</time>
      </trkpt>
      <trkpt lat="43.47559" lon="6.27728">
        <ele>115.01</ele>
        <time>2018-09-16T12:10:15Z</time>
      </trkpt>
      <trkpt lat="43.47565" lon="6.27723">
        <ele>114.53</ele>
        <time>2018-09-16T12:10:23Z</time>
      </trkpt>
      <trkpt lat="43.47582" lon="6.277">
        <ele>114.05</ele>
        <time>2018-09-16T12:10:45Z</time>
      </trkpt>
      <trkpt lat="43.47594" lon="6.27681">
        <ele>112.13</ele>
        <time>2018-09-16T12:11:05Z</time>
      </trkpt>
      <trkpt lat="43.4761" lon="6.2766">
        <ele>110.69</ele>
        <time>2018-09-16T12:11:26Z</time>
      </trkpt>
      <trkpt lat="43.47617" lon="6.2765">
        <ele>110.21</ele>
        <time>2018-09-16T12:11:36Z</time>
      </trkpt>
      <trkpt lat="43.47629" lon="6.27635">
        <ele>107.81</ele>
        <time>2018-09-16T12:11:52Z</time>
      </trkpt>
      <trkpt lat="43.47641" lon="6.27619">
        <ele>106.84</ele>
        <time>2018-09-16T12:12:08Z</time>
      </trkpt>
      <trkpt lat="43.47643" lon="6.27617">
        <ele>106.84</ele>
        <time>2018-09-16T12:12:18Z</time>
      </trkpt>
      <trkpt lat="43.47664" lon="6.27616">
        <ele>106.84</ele>
        <time>2018-09-16T12:12:38Z</time>
      </trkpt>
      <trkpt lat="43.47672" lon="6.27617">
        <ele>106.36</ele>
        <time>2018-09-16T12:12:51Z</time>
      </trkpt>
      <trkpt lat="43.47691" lon="6.2762">
        <ele>105.4</ele>
        <time>2018-09-16T12:13:09Z</time>
      </trkpt>
      <trkpt lat="43.47708" lon="6.27627">
        <ele>103.48</ele>
        <time>2018-09-16T12:13:25Z</time>
      </trkpt>
      <trkpt lat="43.47715" lon="6.27628">
        <ele>103</ele>
        <time>2018-09-16T12:13:33Z</time>
      </trkpt>
      <trkpt lat="43.47718" lon="6.27623">
        <ele>102.04</ele>
        <time>2018-09-16T12:13:38Z</time>
      </trkpt>
      <trkpt lat="43.47717" lon="6.2761">
        <ele>102.04</ele>
        <time>2018-09-16T12:13:49Z</time>
      </trkpt>
      <trkpt lat="43.47709" lon="6.27581">
        <ele>101.56</ele>
        <time>2018-09-16T12:14:09Z</time>
      </trkpt>
      <trkpt lat="43.477" lon="6.27548">
        <ele>102.04</ele>
        <time>2018-09-16T12:14:32Z</time>
      </trkpt>
      <trkpt lat="43.47693" lon="6.27518">
        <ele>102.04</ele>
        <time>2018-09-16T12:14:53Z</time>
      </trkpt>
      <trkpt lat="43.47684" lon="6.2749">
        <ele>101.56</ele>
        <time>2018-09-16T12:15:13Z</time>
      </trkpt>
      <trkpt lat="43.47681" lon="6.27481">
        <ele>102.04</ele>
        <time>2018-09-16T12:15:21Z</time>
      </trkpt>
      <trkpt lat="43.4768" lon="6.27476">
        <ele>101.56</ele>
        <time>2018-09-16T12:15:25Z</time>
      </trkpt>
      <trkpt lat="43.47675" lon="6.27461">
        <ele>101.56</ele>
        <time>2018-09-16T12:15:43Z</time>
      </trkpt>
      <trkpt lat="43.47673" lon="6.27453">
        <ele>102.04</ele>
        <time>2018-09-16T12:15:55Z</time>
      </trkpt>
      <trkpt lat="43.47663" lon="6.27425">
        <ele>101.56</ele>
        <time>2018-09-16T12:16:16Z</time>
      </trkpt>
      <trkpt lat="43.47659" lon="6.27409">
        <ele>102.04</ele>
        <time>2018-09-16T12:16:30Z</time>
      </trkpt>
      <trkpt lat="43.47649" lon="6.27384">
        <ele>102.04</ele>
        <time>2018-09-16T12:16:49Z</time>
      </trkpt>
      <trkpt lat="43.47641" lon="6.27357">
        <ele>103</ele>
        <time>2018-09-16T12:17:09Z</time>
      </trkpt>
      <trkpt lat="43.47634" lon="6.27333">
        <ele>102.52</ele>
        <time>2018-09-16T12:17:25Z</time>
      </trkpt>
      <trkpt lat="43.47627" lon="6.27306">
        <ele>103</ele>
        <time>2018-09-16T12:17:43Z</time>
      </trkpt>
      <trkpt lat="43.47618" lon="6.2728">
        <ele>103.48</ele>
        <time>2018-09-16T12:18:01Z</time>
      </trkpt>
      <trkpt lat="43.47608" lon="6.27249">
        <ele>103</ele>
        <time>2018-09-16T12:18:22Z</time>
      </trkpt>
      <trkpt lat="43.47595" lon="6.27221">
        <ele>102.52</ele>
        <time>2018-09-16T12:18:43Z</time>
      </trkpt>
      <trkpt lat="43.47583" lon="6.27194">
        <ele>103</ele>
        <time>2018-09-16T12:19:03Z</time>
      </trkpt>
      <trkpt lat="43.47569" lon="6.27168">
        <ele>103.48</ele>
        <time>2018-09-16T12:19:24Z</time>
      </trkpt>
      <trkpt lat="43.47559" lon="6.2715">
        <ele>104.92</ele>
        <time>2018-09-16T12:19:40Z</time>
      </trkpt>
      <trkpt lat="43.47548" lon="6.27128">
        <ele>104.44</ele>
        <time>2018-09-16T12:19:57Z</time>
      </trkpt>
      <trkpt lat="43.47545" lon="6.2712">
        <ele>104.92</ele>
        <time>2018-09-16T12:20:03Z</time>
      </trkpt>
      <trkpt lat="43.4754" lon="6.27114">
        <ele>104.92</ele>
        <time>2018-09-16T12:20:09Z</time>
      </trkpt>
      <trkpt lat="43.47523" lon="6.27107">
        <ele>105.4</ele>
        <time>2018-09-16T12:20:27Z</time>
      </trkpt>
      <trkpt lat="43.47519" lon="6.27099">
        <ele>105.4</ele>
        <time>2018-09-16T12:20:41Z</time>
      </trkpt>
      <trkpt lat="43.47518" lon="6.2709">
        <ele>104.92</ele>
        <time>2018-09-16T12:20:55Z</time>
      </trkpt>
      <trkpt lat="43.47517" lon="6.27062">
        <ele>104.92</ele>
        <time>2018-09-16T12:21:15Z</time>
      </trkpt>
      <trkpt lat="43.47515" lon="6.27029">
        <ele>104.44</ele>
        <time>2018-09-16T12:21:36Z</time>
      </trkpt>
      <trkpt lat="43.47509" lon="6.27006">
        <ele>104.44</ele>
        <time>2018-09-16T12:21:52Z</time>
      </trkpt>
      <trkpt lat="43.47507" lon="6.26982">
        <ele>104.44</ele>
        <time>2018-09-16T12:22:08Z</time>
      </trkpt>
      <trkpt lat="43.47505" lon="6.26955">
        <ele>105.4</ele>
        <time>2018-09-16T12:22:25Z</time>
      </trkpt>
      <trkpt lat="43.47498" lon="6.26928">
        <ele>104.44</ele>
        <time>2018-09-16T12:22:43Z</time>
      </trkpt>
      <trkpt lat="43.47498" lon="6.26926">
        <ele>104.44</ele>
        <time>2018-09-16T12:22:45Z</time>
      </trkpt>
      <trkpt lat="43.47492" lon="6.26901">
        <ele>104.44</ele>
        <time>2018-09-16T12:23:03Z</time>
      </trkpt>
      <trkpt lat="43.47491" lon="6.2688">
        <ele>104.44</ele>
        <time>2018-09-16T12:23:19Z</time>
      </trkpt>
      <trkpt lat="43.47486" lon="6.26849">
        <ele>104.92</ele>
        <time>2018-09-16T12:23:39Z</time>
      </trkpt>
      <trkpt lat="43.47483" lon="6.26823">
        <ele>104.44</ele>
        <time>2018-09-16T12:23:56Z</time>
      </trkpt>
      <trkpt lat="43.47473" lon="6.26796">
        <ele>103.48</ele>
        <time>2018-09-16T12:24:14Z</time>
      </trkpt>
      <trkpt lat="43.47459" lon="6.26771">
        <ele>103.48</ele>
        <time>2018-09-16T12:24:33Z</time>
      </trkpt>
      <trkpt lat="43.47443" lon="6.26759">
        <ele>103.96</ele>
        <time>2018-09-16T12:24:49Z</time>
      </trkpt>
      <trkpt lat="43.47431" lon="6.26756">
        <ele>103.96</ele>
        <time>2018-09-16T12:25:01Z</time>
      </trkpt>
      <trkpt lat="43.47414" lon="6.26756">
        <ele>105.88</ele>
        <time>2018-09-16T12:25:19Z</time>
      </trkpt>
      <trkpt lat="43.4741" lon="6.26755">
        <ele>105.88</ele>
        <time>2018-09-16T12:25:23Z</time>
      </trkpt>
      <trkpt lat="43.47391" lon="6.26747">
        <ele>105.4</ele>
        <time>2018-09-16T12:25:42Z</time>
      </trkpt>
      <trkpt lat="43.47385" lon="6.26742">
        <ele>105.4</ele>
        <time>2018-09-16T12:26:00Z</time>
      </trkpt>
      <trkpt lat="43.47388" lon="6.26738">
        <ele>104.92</ele>
        <time>2018-09-16T12:26:27Z</time>
      </trkpt>
      <trkpt lat="43.47387" lon="6.26738">
        <ele>105.4</ele>
        <time>2018-09-16T12:26:57Z</time>
      </trkpt>
      <trkpt lat="43.47391" lon="6.26739">
        <ele>104.92</ele>
        <time>2018-09-16T12:27:24Z</time>
      </trkpt>
      <trkpt lat="43.4739" lon="6.26738">
        <ele>106.36</ele>
        <time>2018-09-16T12:27:50Z</time>
      </trkpt>
      <trkpt lat="43.47391" lon="6.26737">
        <ele>106.36</ele>
        <time>2018-09-16T12:28:21Z</time>
      </trkpt>
      <trkpt lat="43.47388" lon="6.26736">
        <ele>106.36</ele>
        <time>2018-09-16T12:28:44Z</time>
      </trkpt>
      <trkpt lat="43.47385" lon="6.26737">
        <ele>106.36</ele>
        <time>2018-09-16T12:29:02Z</time>
      </trkpt>
      <trkpt lat="43.4738" lon="6.26733">
        <ele>106.36</ele>
        <time>2018-09-16T12:29:25Z</time>
      </trkpt>
      <trkpt lat="43.47372" lon="6.26719">
        <ele>106.36</ele>
        <time>2018-09-16T12:29:40Z</time>
      </trkpt>
      <trkpt lat="43.47363" lon="6.26714">
        <ele>106.84</ele>
        <time>2018-09-16T12:29:57Z</time>
      </trkpt>
      <trkpt lat="43.47362" lon="6.26715">
        <ele>106.84</ele>
        <time>2018-09-16T12:30:14Z</time>
      </trkpt>
      <trkpt lat="43.47362" lon="6.26711">
        <ele>106.36</ele>
        <time>2018-09-16T12:30:37Z</time>
      </trkpt>
      <trkpt lat="43.47369" lon="6.26709">
        <ele>104.92</ele>
        <time>2018-09-16T12:30:50Z</time>
      </trkpt>
      <trkpt lat="43.47374" lon="6.26705">
        <ele>104.92</ele>
        <time>2018-09-16T12:31:05Z</time>
      </trkpt>
      <trkpt lat="43.47376" lon="6.26697">
        <ele>104.44</ele>
        <time>2018-09-16T12:31:19Z</time>
      </trkpt>
      <trkpt lat="43.47382" lon="6.26691">
        <ele>103.96</ele>
        <time>2018-09-16T12:31:33Z</time>
      </trkpt>
      <trkpt lat="43.47384" lon="6.26685">
        <ele>103.48</ele>
        <time>2018-09-16T12:31:47Z</time>
      </trkpt>
      <trkpt lat="43.4739" lon="6.26678">
        <ele>103.96</ele>
        <time>2018-09-16T12:32:04Z</time>
      </trkpt>
      <trkpt lat="43.47388" lon="6.26677">
        <ele>103.48</ele>
        <time>2018-09-16T12:32:19Z</time>
      </trkpt>
      <trkpt lat="43.4739" lon="6.26676">
        <ele>103.96</ele>
        <time>2018-09-16T12:32:44Z</time>
      </trkpt>
      <trkpt lat="43.47388" lon="6.26674">
        <ele>103.48</ele>
        <time>2018-09-16T12:33:05Z</time>
      </trkpt>
      <trkpt lat="43.47389" lon="6.26673">
        <ele>103</ele>
        <time>2018-09-16T12:33:28Z</time>
      </trkpt>
      <trkpt lat="43.4739" lon="6.26671">
        <ele>103.48</ele>
        <time>2018-09-16T12:33:50Z</time>
      </trkpt>
      <trkpt lat="43.47394" lon="6.26674">
        <ele>103.96</ele>
        <time>2018-09-16T12:34:08Z</time>
      </trkpt>
      <trkpt lat="43.47397" lon="6.26677">
        <ele>102.52</ele>
        <time>2018-09-16T12:34:25Z</time>
      </trkpt>
      <trkpt lat="43.47405" lon="6.26687">
        <ele>100.6</ele>
        <time>2018-09-16T12:34:52Z</time>
      </trkpt>
      <trkpt lat="43.47408" lon="6.26688">
        <ele>102.04</ele>
        <time>2018-09-16T12:35:19Z</time>
      </trkpt>
      <trkpt lat="43.47411" lon="6.2669">
        <ele>102.52</ele>
        <time>2018-09-16T12:35:53Z</time>
      </trkpt>
      <trkpt lat="43.47408" lon="6.26686">
        <ele>103</ele>
        <time>2018-09-16T12:36:14Z</time>
      </trkpt>
      <trkpt lat="43.47398" lon="6.26677">
        <ele>103</ele>
        <time>2018-09-16T12:36:33Z</time>
      </trkpt>
      <trkpt lat="43.47396" lon="6.26678">
        <ele>103.48</ele>
        <time>2018-09-16T12:36:52Z</time>
      </trkpt>
      <trkpt lat="43.47394" lon="6.26683">
        <ele>104.44</ele>
        <time>2018-09-16T12:37:10Z</time>
      </trkpt>
      <trkpt lat="43.47397" lon="6.26682">
        <ele>104.44</ele>
        <time>2018-09-16T12:37:26Z</time>
      </trkpt>
      <trkpt lat="43.474" lon="6.26687">
        <ele>107.32</ele>
        <time>2018-09-16T12:37:42Z</time>
      </trkpt>
      <trkpt lat="43.47391" lon="6.26699">
        <ele>106.84</ele>
        <time>2018-09-16T12:37:58Z</time>
      </trkpt>
      <trkpt lat="43.47389" lon="6.267">
        <ele>106.84</ele>
        <time>2018-09-16T12:38:00Z</time>
      </trkpt>
      <trkpt lat="43.47379" lon="6.26716">
        <ele>105.88</ele>
        <time>2018-09-16T12:38:15Z</time>
      </trkpt>
      <trkpt lat="43.4738" lon="6.26719">
        <ele>106.84</ele>
        <time>2018-09-16T12:38:18Z</time>
      </trkpt>
      <trkpt lat="43.4739" lon="6.26737">
        <ele>106.84</ele>
        <time>2018-09-16T12:38:34Z</time>
      </trkpt>
      <trkpt lat="43.47396" lon="6.26744">
        <ele>107.32</ele>
        <time>2018-09-16T12:38:51Z</time>
      </trkpt>
      <trkpt lat="43.47399" lon="6.26748">
        <ele>106.36</ele>
        <time>2018-09-16T12:38:55Z</time>
      </trkpt>
      <trkpt lat="43.47416" lon="6.26752">
        <ele>106.36</ele>
        <time>2018-09-16T12:39:10Z</time>
      </trkpt>
      <trkpt lat="43.47407" lon="6.26744">
        <ele>106.84</ele>
        <time>2018-09-16T12:39:24Z</time>
      </trkpt>
      <trkpt lat="43.474" lon="6.26743">
        <ele>105.88</ele>
        <time>2018-09-16T12:39:40Z</time>
      </trkpt>
      <trkpt lat="43.47385" lon="6.26727">
        <ele>106.36</ele>
        <time>2018-09-16T12:40:01Z</time>
      </trkpt>
      <trkpt lat="43.47391" lon="6.26711">
        <ele>105.88</ele>
        <time>2018-09-16T12:40:16Z</time>
      </trkpt>
      <trkpt lat="43.47396" lon="6.26705">
        <ele>105.88</ele>
        <time>2018-09-16T12:40:39Z</time>
      </trkpt>
      <trkpt lat="43.47397" lon="6.26703">
        <ele>106.36</ele>
        <time>2018-09-16T12:41:01Z</time>
      </trkpt>
      <trkpt lat="43.47396" lon="6.26698">
        <ele>105.88</ele>
        <time>2018-09-16T12:41:22Z</time>
      </trkpt>
      <trkpt lat="43.47395" lon="6.26704">
        <ele>105.88</ele>
        <time>2018-09-16T12:41:59Z</time>
      </trkpt>
      <trkpt lat="43.47394" lon="6.26705">
        <ele>105.88</ele>
        <time>2018-09-16T12:42:40Z</time>
      </trkpt>
      <trkpt lat="43.47395" lon="6.26704">
        <ele>105.88</ele>
        <time>2018-09-16T12:43:07Z</time>
      </trkpt>
      <trkpt lat="43.474" lon="6.26701">
        <ele>105.88</ele>
        <time>2018-09-16T12:43:42Z</time>
      </trkpt>
      <trkpt lat="43.47399" lon="6.26703">
        <ele>105.88</ele>
        <time>2018-09-16T12:44:13Z</time>
      </trkpt>
      <trkpt lat="43.47398" lon="6.26699">
        <ele>105.88</ele>
        <time>2018-09-16T12:44:43Z</time>
      </trkpt>
      <trkpt lat="43.47397" lon="6.267">
        <ele>106.36</ele>
        <time>2018-09-16T12:45:15Z</time>
      </trkpt>
      <trkpt lat="43.47398" lon="6.26703">
        <ele>106.36</ele>
        <time>2018-09-16T12:45:52Z</time>
      </trkpt>
      <trkpt lat="43.47396" lon="6.26708">
        <ele>106.36</ele>
        <time>2018-09-16T12:46:20Z</time>
      </trkpt>
      <trkpt lat="43.47394" lon="6.26711">
        <ele>105.88</ele>
        <time>2018-09-16T12:46:39Z</time>
      </trkpt>
      <trkpt lat="43.47392" lon="6.26711">
        <ele>105.88</ele>
        <time>2018-09-16T12:47:06Z</time>
      </trkpt>
      <trkpt lat="43.47393" lon="6.26708">
        <ele>105.88</ele>
        <time>2018-09-16T12:47:34Z</time>
      </trkpt>
      <trkpt lat="43.47387" lon="6.26723">
        <ele>106.36</ele>
        <time>2018-09-16T12:47:51Z</time>
      </trkpt>
      <trkpt lat="43.4739" lon="6.26733">
        <ele>106.84</ele>
        <time>2018-09-16T12:48:03Z</time>
      </trkpt>
      <trkpt lat="43.47399" lon="6.26738">
        <ele>106.84</ele>
        <time>2018-09-16T12:48:23Z</time>
      </trkpt>
      <trkpt lat="43.4741" lon="6.26746">
        <ele>106.84</ele>
        <time>2018-09-16T12:48:38Z</time>
      </trkpt>
      <trkpt lat="43.47415" lon="6.26755">
        <ele>107.32</ele>
        <time>2018-09-16T12:48:53Z</time>
      </trkpt>
      <trkpt lat="43.4741" lon="6.26754">
        <ele>107.32</ele>
        <time>2018-09-16T12:49:08Z</time>
      </trkpt>
      <trkpt lat="43.47406" lon="6.26752">
        <ele>107.32</ele>
        <time>2018-09-16T12:49:12Z</time>
      </trkpt>
    </trkseg>
  </trk>
</gpx>